Last Month

Pierce College

Hourly Data | America/Los_Angeles
as of 5/4/26 6:32 PM PDT
Date & Time Temp Max (°F) Temp Min (°F) RH (%) Dew Pt (°F) Latest Rain (In) Soil Temp (°F) Wind Spd (mph) Wind Dir (°) Wind Gust (mph) Leaf Wet Raw (mV) Net Radiation (W/m²) Evap Pan Max Wind (mph) Evap Pan H2O Max Temp (°F) Evap Pan Level (In)
4/30/26 - 2300 59.2 56.0 79 51.4 0.00 74.3 0.1 SE | 126 2.5 273 -67 0.2 - 3.8
4/30/26 - 2200 61.8 59.1 73 51.6 0.00 74.5 0.1 NE | 36 1.4 268 -71 1.1 - 3.8
4/30/26 - 2100 65.7 61.8 66 51.9 0.00 74.8 0.2 ENE | 67 2.2 267 -75 1.1 - 3.8
4/30/26 - 2000 70.9 65.5 59 52.7 0.00 74.3 0.3 ENE | 60 3.3 266 -76 2.2 - 3.8
4/30/26 - 1900 77.8 70.8 48 53.2 0.00 74.2 0.7 NE | 36 3.8 264 21 2.8 - 3.8
4/30/26 - 1800 81.2 77.2 38 50.9 0.00 73.4 0.8 NNE | 21 4.5 263 165 4.4 - 3.8
4/30/26 - 1700 81.5 77.3 34 49.6 0.00 72.7 2.0 WNW | 293 9.6 262 301 5.7 - 3.8
4/30/26 - 1600 77.8 75.8 42 52.3 0.00 69.5 3.6 SSE | 159 10.0 262 419 5.1 - 3.8
4/30/26 - 1500 78.9 76.4 41 52.1 0.00 71.5 3.4 SSE | 154 9.5 262 504 6.1 - 3.8
4/30/26 - 1400 81.0 76.4 40 52.5 0.00 70.4 3.1 E | 95 9.1 262 547 6.0 - 3.8
4/30/26 - 1300 81.9 77.2 37 50.8 0.00 70.0 1.1 NNE | 25 5.7 262 550 4.3 - 3.8
4/30/26 - 1200 77.2 71.8 43 50.2 0.00 69.8 0.9 NNE | 28 4.9 262 524 4.7 - 3.8
4/30/26 - 1100 72.1 65.7 51 49.6 0.00 69.6 0.8 NE | 39 4.2 262 454 2.9 - 3.8
4/30/26 - 1000 66.6 61.8 59 49.4 0.00 69.5 0.9 NNE | 15 4.3 263 346 2.8 - 3.8
4/30/26 - 0900 62.1 56.8 70 49.5 0.00 70.4 0.5 NNE | 28 4.0 264 166 2.0 - 3.8
4/30/26 - 0800 56.8 52.8 79 48.9 0.00 70.3 0.3 SSE | 156 3.0 268 54 1.7 - 3.8
4/30/26 - 0700 52.8 48.3 88 46.7 0.00 70.8 0.0 S | 183 0.7 269 5 0.0 - 3.8
4/30/26 - 0600 48.6 47.9 86 44.4 0.00 70.9 0.0 SSW | 193 0.9 290 -30 0.0 - 3.8
4/30/26 - 0500 49.4 48.3 84 44.2 0.00 71.4 0.0 N | 0 0.0 283 -44 0.0 - 3.8
4/30/26 - 0400 50.0 49.1 80 43.7 0.00 71.9 0.0 SSE | 160 1.3 275 -54 0.0 - 3.8
4/30/26 - 0300 50.9 49.7 76 43.0 0.00 72.2 0.0 SSE | 167 0.3 270 -57 0.0 - 3.8
4/30/26 - 0200 52.0 50.6 74 43.2 0.00 72.4 0.0 SSE | 167 0.8 269 -58 0.0 - 3.8
4/30/26 - 0100 53.1 51.2 70 42.6 0.00 72.7 0.1 SSW | 200 1.8 268 -60 0.1 - 3.8
4/30/26 - 0000 54.4 52.8 66 42.2 0.00 73.0 0.1 SSW | 199 1.5 267 -64 1.1 - 3.8
4/29/26 - 2300 56.6 53.7 62 42.4 0.00 73.1 0.2 SSW | 210 2.1 266 -69 1.3 - 3.8
4/29/26 - 2200 61.6 56.4 55 42.8 0.00 73.4 0.6 S | 188 2.3 266 -75 1.4 - 3.8
4/29/26 - 2100 65.1 61.5 46 42.0 0.00 73.1 1.6 SW | 224 6.1 264 -83 3.1 - 3.8
4/29/26 - 2000 71.0 64.3 36 39.7 0.00 73.0 1.5 W | 262 5.4 263 -82 3.9 - 3.8
4/29/26 - 1900 73.3 70.7 30 39.5 0.00 73.0 3.4 W | 268 10.0 262 25 7.4 - 3.8
4/29/26 - 1800 75.9 72.6 30 41.0 0.00 72.1 5.3 WSW | 250 11.3 262 175 7.8 - 3.8
4/29/26 - 1700 76.2 74.8 38 48.1 0.00 71.5 5.2 SSW | 212 10.7 262 311 7.1 - 3.8
4/29/26 - 1600 78.3 75.1 39 49.9 0.00 71.0 4.5 S | 178 10.2 262 422 6.8 - 3.8
4/29/26 - 1500 79.4 77.0 34 47.4 0.00 70.2 3.5 SSE | 168 8.6 261 502 6.7 - 3.8
4/29/26 - 1400 81.4 77.1 27 42.1 0.00 69.5 3.0 SSW | 208 9.5 260 547 5.3 - 3.8
4/29/26 - 1300 80.5 76.1 26 40.0 0.00 68.8 1.3 NE | 48 4.9 260 553 3.1 - 3.8
4/29/26 - 1200 76.8 70.3 30 40.7 0.00 68.6 1.6 ENE | 71 4.9 260 528 3.6 - 3.8
4/29/26 - 1100 73.1 68.8 34 41.4 0.00 68.5 1.3 NE | 51 6.1 260 462 4.4 - 3.8
4/29/26 - 1000 69.3 64.9 41 43.2 0.00 68.9 0.9 NE | 38 3.6 261 361 3.5 - 3.8
4/29/26 - 0900 65.1 57.3 53 43.0 0.00 70.0 0.5 NE | 52 2.7 262 167 2.4 - 3.8
4/29/26 - 0800 57.5 47.3 70 42.1 0.00 69.6 0.3 W | 271 3.2 265 -10 1.8 - 3.8
4/29/26 - 0700 47.6 44.3 83 40.5 0.00 70.0 0.0 SSE | 151 0.6 276 -36 0.0 - 3.8
4/29/26 - 0600 45.8 44.2 81 39.4 0.00 70.0 0.1 SSE | 163 2.1 276 -56 0.0 - 3.8
4/29/26 - 0500 46.2 45.1 79 39.5 0.00 70.5 0.1 S | 182 1.6 273 -57 0.0 - 3.8
4/29/26 - 0400 47.0 46.0 77 39.7 0.00 71.0 0.0 N | 0 0.0 271 -58 0.0 - 3.8
4/29/26 - 0300 48.0 46.8 73 39.2 0.00 71.4 0.0 N | 0 0.0 270 -60 0.0 - 3.8
4/29/26 - 0200 49.5 47.9 68 38.4 0.00 71.6 0.0 SSW | 192 0.7 268 -61 0.0 - 3.8
4/29/26 - 0100 50.2 48.8 65 38.3 0.00 71.8 0.0 SSE | 158 0.8 267 -65 0.0 - 3.8
4/29/26 - 0000 53.4 50.2 61 38.6 0.00 72.2 0.1 SSW | 200 1.7 266 -70 1.5 - 3.8
4/28/26 - 2300 57.5 53.2 53 39.0 0.00 72.4 0.7 SSW | 213 4.6 266 -76 2.8 - 3.8
4/28/26 - 2200 59.4 57.0 48 38.8 0.00 72.7 2.0 SW | 217 5.3 264 -80 3.6 - 3.8
4/28/26 - 2100 61.9 59.0 47 39.9 0.00 72.4 3.1 SW | 235 6.1 264 -85 4.0 - 3.8
4/28/26 - 2000 67.9 61.9 42 40.5 0.00 72.3 2.5 WSW | 258 6.9 263 -81 4.4 - 3.8
4/28/26 - 1900 71.8 67.8 34 40.2 0.00 71.9 2.0 WNW | 288 8.4 262 20 6.1 - 3.8
4/28/26 - 1800 73.3 70.9 33 41.6 0.00 71.2 2.9 W | 266 8.7 262 169 6.2 - 3.8
4/28/26 - 1700 73.8 72.1 34 42.6 0.00 70.7 3.6 S | 190 9.5 262 306 6.3 - 3.8
4/28/26 - 1600 74.9 72.8 33 42.5 0.00 72.2 4.0 S | 190 8.9 262 418 6.4 - 3.8
4/28/26 - 1500 76.5 74.2 28 39.9 0.00 69.0 3.5 SSE | 166 10.1 261 503 7.2 - 3.8
4/28/26 - 1400 78.9 73.6 23 36.2 0.00 68.5 1.9 NNE | 21 7.7 260 547 5.7 - 3.8
4/28/26 - 1300 76.2 71.2 26 36.1 0.00 67.6 1.5 SE | 138 6.5 260 563 4.4 - 3.8
4/28/26 - 1200 72.9 67.6 33 39.9 0.00 67.8 1.5 E | 85 4.7 260 534 4.3 - 3.8
4/28/26 - 1100 67.7 63.9 40 40.8 0.00 70.1 1.9 W | 271 9.4 262 464 8.2 - 3.8
4/28/26 - 1000 64.1 59.5 47 41.5 0.00 68.0 1.0 WSW | 258 5.4 262 358 4.1 - 3.8
4/28/26 - 0900 60.1 52.1 61 42.4 0.00 68.2 0.6 SE | 140 3.2 262 199 1.9 - 3.8
4/28/26 - 0800 52.3 45.5 89 45.2 0.00 70.8 0.1 NNE | 19 2.0 265 27 0.0 - 3.8
4/28/26 - 0700 45.7 42.8 92 41.7 0.00 68.7 0.1 S | 170 1.6 354 -4 0.0 - 3.8
4/28/26 - 0600 44.8 43.2 91 41.5 0.00 69.2 0.0 S | 173 0.6 351 -20 0.0 - 3.8
4/28/26 - 0500 45.4 44.2 90 42.2 0.00 69.7 0.0 SSE | 154 1.4 353 -22 0.0 - 3.8
4/28/26 - 0400 45.8 44.9 90 42.6 0.00 69.9 0.1 S | 178 1.4 333 -27 0.0 - 3.8
4/28/26 - 0300 47.6 45.5 87 42.8 0.00 70.9 0.1 SSE | 162 2.0 304 -36 0.0 - 3.8
4/28/26 - 0200 49.0 46.8 83 43.0 0.00 71.8 0.0 SSE | 152 0.8 283 -51 0.0 - 3.8
4/28/26 - 0100 49.6 48.0 80 42.9 0.00 70.8 0.1 S | 191 1.3 275 -61 0.0 - 3.8
4/28/26 - 0000 53.5 49.3 71 42.4 0.00 71.1 0.4 SSW | 200 1.9 268 -65 1.2 - 3.8
4/27/26 - 2300 54.2 53.2 64 41.7 0.00 71.2 1.4 SSW | 197 3.8 266 -51 2.2 - 3.8
4/27/26 - 2200 55.8 53.7 59 40.7 0.00 71.1 1.8 SW | 231 5.7 266 -71 3.1 - 3.8
4/27/26 - 2100 57.9 55.4 55 40.5 0.00 71.3 2.3 WSW | 238 6.1 265 -77 4.1 - 3.8
4/27/26 - 2000 62.1 57.6 48 39.7 0.00 71.3 4.3 WSW | 246 9.5 264 -71 6.8 - 3.8
4/27/26 - 1900 64.4 62.0 40 38.4 0.00 71.2 3.4 WSW | 239 8.2 263 33 5.1 - 3.8
4/27/26 - 1800 64.1 62.5 40 38.7 0.00 71.1 3.2 SSE | 148 7.4 263 55 4.7 - 3.8
4/27/26 - 1700 64.8 63.3 39 38.4 0.00 70.4 3.9 SSE | 160 9.2 262 185 6.7 - 3.8
4/27/26 - 1600 69.5 64.2 36 38.6 0.00 70.1 4.3 S | 178 10.6 262 380 6.4 - 3.8
4/27/26 - 1500 67.9 63.9 37 38.6 0.00 72.7 3.7 S | 181 10.6 262 499 6.3 - 3.8
4/27/26 - 1400 66.8 62.4 40 39.4 0.00 69.7 3.8 SSE | 164 9.9 262 402 6.8 - 3.8
4/27/26 - 1300 64.6 61.7 42 39.2 0.00 69.1 4.5 SSW | 204 11.9 263 250 6.8 - 3.8
4/27/26 - 1200 65.8 61.5 38 37.9 0.00 69.2 2.8 SE | 126 9.6 262 361 5.8 - 3.8
4/27/26 - 1100 65.0 60.1 39 36.7 0.00 69.2 2.2 SSW | 207 8.3 263 223 5.8 - 3.8
4/27/26 - 1000 62.7 60.1 41 37.2 0.00 69.1 2.5 WSW | 240 9.5 262 344 6.3 - 3.8
4/27/26 - 0900 60.4 55.4 54 40.7 0.00 69.6 1.4 WSW | 254 5.3 262 161 4.2 - 3.8
4/27/26 - 0800 55.6 50.4 70 43.5 0.00 69.9 0.5 WSW | 254 5.7 264 -21 3.6 - 3.8
4/27/26 - 0700 51.9 50.3 71 41.6 0.00 70.2 0.4 SSW | 207 2.1 269 -47 1.4 - 3.8
4/27/26 - 0600 53.7 51.8 68 42.9 0.00 70.3 0.3 SSW | 211 1.9 267 -37 1.3 - 3.8
4/27/26 - 0500 53.7 53.1 71 44.3 0.00 70.5 0.3 SSW | 206 1.6 267 -27 0.5 - 3.8
4/27/26 - 0400 53.9 52.8 70 43.9 0.00 71.4 0.3 SW | 218 2.3 267 -26 1.0 - 3.8
4/27/26 - 0300 53.5 52.5 70 43.6 0.00 71.0 0.2 SSW | 201 1.5 267 -31 0.3 - 3.8
4/27/26 - 0200 54.6 53.0 68 43.8 0.00 71.3 0.4 SW | 222 2.5 267 -35 1.1 - 3.8
4/27/26 - 0100 54.7 53.9 68 43.8 0.00 71.5 0.4 SW | 225 2.1 266 -29 2.1 - 3.8
4/27/26 - 0000 54.8 53.6 66 43.1 0.00 71.5 1.1 SSW | 200 4.8 266 -41 2.7 - 3.8
4/26/26 - 2300 55.4 54.4 65 43.2 0.00 71.8 2.2 SW | 232 5.4 266 -51 3.4 - 3.8
4/26/26 - 2200 55.9 55.1 63 43.2 0.00 72.0 3.2 WSW | 242 7.3 266 -52 4.8 - 3.8
4/26/26 - 2100 57.2 55.4 61 42.7 0.00 72.1 4.1 WSW | 241 9.2 266 -65 7.0 - 3.8
4/26/26 - 2000 59.1 57.0 50 39.2 0.00 72.0 4.2 WSW | 239 9.1 264 -60 5.3 - 3.8
4/26/26 - 1900 61.8 58.7 48 40.3 0.00 71.8 4.6 SW | 225 9.1 264 22 6.0 - 3.8
4/26/26 - 1800 63.1 60.8 48 41.8 0.00 70.2 5.4 SW | 226 12.7 264 184 7.1 - 3.8
4/26/26 - 1700 64.1 60.0 46 41.0 0.00 67.8 5.2 SSW | 202 12.5 264 230 7.6 - 3.8
4/26/26 - 1600 65.8 62.5 41 39.6 0.00 70.4 6.1 SSW | 212 13.2 263 450 8.6 - 3.8
4/26/26 - 1500 65.8 63.4 36 37.0 0.00 70.0 7.1 SW | 236 13.7 262 497 8.7 - 3.8
4/26/26 - 1400 67.3 63.9 35 37.0 0.00 69.2 6.0 WSW | 240 14.0 262 464 8.8 - 3.8
4/26/26 - 1300 66.8 62.8 35 37.0 0.00 69.3 5.2 WSW | 247 12.6 262 563 8.4 - 3.8
4/26/26 - 1200 65.6 62.3 37 37.2 0.00 68.7 5.0 WSW | 252 12.5 262 466 8.4 - 3.8
4/26/26 - 1100 64.6 61.0 39 37.0 0.00 68.9 5.4 WSW | 247 13.9 262 486 9.7 - 3.8
4/26/26 - 1000 61.2 56.8 51 41.3 0.00 70.4 4.1 SW | 231 11.0 263 319 8.5 - 3.8
4/26/26 - 0900 58.5 54.5 63 43.4 0.00 69.1 2.9 WSW | 258 8.2 265 134 5.5 - 3.8
4/26/26 - 0800 55.2 52.6 70 44.0 0.00 69.3 2.8 WSW | 237 6.7 265 34 5.0 - 3.8
4/26/26 - 0700 52.9 51.9 72 43.8 0.00 69.5 2.3 SW | 233 6.4 267 -11 4.2 - 3.8
4/26/26 - 0600 52.5 52.1 74 44.2 0.00 69.7 1.9 SW | 224 5.4 268 -19 3.1 - 3.8
4/26/26 - 0500 52.7 51.0 76 44.5 0.00 69.9 1.2 SW | 225 6.0 268 -41 3.8 - 3.8
4/26/26 - 0400 53.2 52.5 73 44.5 0.00 67.9 2.7 SW | 231 7.4 268 -35 5.2 - 3.8
4/26/26 - 0300 53.2 52.6 73 44.4 0.00 70.3 2.2 SW | 230 6.5 268 -30 4.6 - 3.8
4/26/26 - 0200 53.4 52.6 72 44.2 0.00 72.7 2.4 WSW | 239 6.5 267 -41 3.6 - 3.8
4/26/26 - 0100 54.1 53.2 70 43.9 0.00 70.8 2.0 SW | 230 5.7 267 -35 3.8 - 3.8
4/26/26 - 0000 54.8 53.9 67 43.7 0.00 71.1 1.5 W | 260 4.8 266 -29 3.9 - 3.8
4/25/26 - 2300 55.2 54.1 65 43.3 0.00 71.2 2.4 W | 266 7.8 266 -32 5.6 - 3.8
4/25/26 - 2200 56.1 55.0 63 43.3 0.00 68.5 3.2 WSW | 244 6.5 266 -31 4.9 - 3.8
4/25/26 - 2100 57.1 55.9 62 43.5 0.00 73.6 3.3 SW | 224 6.9 266 -33 4.8 - 3.8
4/25/26 - 2000 58.2 56.8 59 43.4 0.00 73.4 3.2 WSW | 255 9.9 266 -31 6.7 - 3.8
4/25/26 - 1900 60.2 57.9 58 44.2 0.00 71.3 3.4 SSW | 206 8.3 266 8 5.6 - 3.8
4/25/26 - 1800 62.5 58.7 55 44.5 0.00 71.0 3.7 S | 174 8.2 265 134 5.6 - 3.8
4/25/26 - 1700 62.9 59.6 55 44.6 0.00 70.8 3.8 SSE | 162 9.0 264 234 5.8 - 3.8
4/25/26 - 1600 62.2 59.2 57 45.1 0.00 70.8 3.8 SSE | 168 9.9 264 110 7.9 - 3.8
4/25/26 - 1500 64.9 61.0 53 45.7 0.00 70.4 4.4 SSE | 166 10.0 264 315 6.4 - 3.8
4/25/26 - 1400 64.2 61.8 54 46.2 0.00 70.1 4.6 SSE | 151 11.0 264 374 7.5 - 3.8
4/25/26 - 1300 65.5 61.8 55 46.8 0.00 70.0 4.3 SE | 140 11.5 264 353 7.5 - 3.8
4/25/26 - 1200 65.5 63.3 53 46.9 0.00 69.7 4.5 SSE | 150 11.4 264 452 6.4 - 3.8
4/25/26 - 1100 65.1 61.0 59 47.9 0.00 70.0 2.2 ESE | 112 8.0 264 275 6.3 - 3.8
4/25/26 - 1000 61.4 59.4 66 48.5 0.00 70.0 2.9 SE | 137 8.3 266 200 5.0 - 3.8
4/25/26 - 0900 60.0 56.6 72 49.4 0.00 70.1 2.0 S | 172 6.4 266 131 4.5 - 3.8
4/25/26 - 0800 56.8 54.5 82 50.5 0.00 70.6 0.4 SSE | 152 3.7 269 13 2.1 - 3.8
4/25/26 - 0700 54.6 52.8 85 48.9 0.00 70.6 0.1 SSW | 192 1.2 270 -19 0.0 - 3.8
4/25/26 - 0600 53.9 53.2 84 48.8 0.00 70.6 0.0 N | 0 0.0 271 -21 0.0 - 3.8
4/25/26 - 0500 53.8 50.6 87 48.4 0.00 71.3 0.2 S | 187 1.6 275 -14 0.0 - 3.8
4/25/26 - 0400 52.4 50.7 86 47.6 0.00 71.6 0.1 SSE | 156 1.9 290 -37 0.0 - 3.8
4/25/26 - 0300 52.2 50.6 83 46.6 0.00 72.0 0.2 S | 180 1.5 278 -52 0.0 - 3.8
4/25/26 - 0200 52.8 52.0 77 45.6 0.00 72.3 0.2 SSW | 195 1.9 273 -55 0.0 - 3.8
4/25/26 - 0100 54.1 52.5 74 45.4 0.00 72.8 0.4 SSW | 197 1.5 269 -58 0.8 - 3.8
4/25/26 - 0000 56.0 53.7 71 45.4 0.00 73.0 0.3 SSW | 200 1.5 268 -58 1.1 - 3.8
4/24/26 - 2300 58.4 55.5 64 45.0 0.00 73.2 0.4 S | 188 2.1 267 -65 1.4 - 3.8
4/24/26 - 2200 61.1 58.3 60 45.5 0.00 73.3 0.5 SSW | 204 3.2 266 -64 1.7 - 3.8
4/24/26 - 2100 63.1 60.9 55 45.4 0.00 70.8 2.4 SW | 234 5.3 265 -68 3.4 - 3.8
4/24/26 - 2000 66.1 62.7 49 45.1 0.00 72.7 2.8 SW | 228 7.3 264 -72 4.2 - 3.8
4/24/26 - 1900 70.0 65.5 50 47.9 0.00 75.6 2.5 S | 187 7.3 264 -23 5.2 - 3.8
4/24/26 - 1800 72.7 69.5 42 46.6 0.00 72.9 3.7 S | 173 7.5 263 169 5.4 - 3.8
4/24/26 - 1700 74.5 72.3 37 45.3 0.00 71.5 3.5 S | 177 8.2 262 306 6.0 - 3.8
4/24/26 - 1600 74.6 71.8 35 44.0 0.00 70.8 3.8 S | 182 10.2 262 422 6.5 - 3.8
4/24/26 - 1500 74.4 72.4 39 46.8 0.00 70.5 4.0 SSE | 161 10.1 262 507 6.2 - 3.8
4/24/26 - 1400 74.8 72.0 38 46.3 0.00 69.9 4.0 ESE | 121 10.5 262 588 6.2 - 3.8
4/24/26 - 1300 74.4 71.1 39 46.5 0.00 69.2 3.2 SE | 145 10.1 262 565 5.9 - 3.8
4/24/26 - 1200 72.6 69.4 42 46.5 0.00 69.0 2.4 SE | 145 8.9 262 530 7.8 - 3.8
4/24/26 - 1100 70.7 67.2 50 49.4 0.00 69.0 1.9 NE | 53 6.0 262 449 4.6 - 3.8
4/24/26 - 1000 67.5 63.3 57 50.0 0.00 68.7 1.5 ENE | 57 4.6 262 351 4.8 - 3.8
4/24/26 - 0900 63.4 57.2 66 48.9 0.00 69.2 0.7 NE | 41 5.1 264 158 3.5 - 3.8
4/24/26 - 0800 57.3 49.8 76 45.9 0.00 69.6 0.0 NNE | 26 1.6 266 52 0.5 - 3.8
4/24/26 - 0700 49.9 47.0 86 44.0 0.00 70.0 0.1 SSW | 194 1.7 293 -18 0.0 - 3.8
4/24/26 - 0600 48.6 47.5 85 43.8 0.00 70.3 0.0 SSE | 156 0.7 294 -37 0.0 - 3.8
4/24/26 - 0500 49.8 48.1 82 43.8 0.00 70.6 0.0 SSE | 155 0.6 282 -50 0.0 - 3.8
4/24/26 - 0400 50.0 49.2 80 43.7 0.00 71.0 0.1 SSE | 163 1.3 274 -56 0.0 - 3.8
4/24/26 - 0300 51.7 49.6 76 43.4 0.00 68.8 0.0 SSE | 153 1.2 271 -57 0.0 - 3.8
4/24/26 - 0200 53.3 51.0 68 42.0 0.00 73.4 0.0 SSE | 166 1.0 268 -58 0.0 - 3.8
4/24/26 - 0100 53.3 52.5 59 38.8 0.00 73.2 0.0 SSW | 196 0.9 266 -60 0.0 - 3.8
4/24/26 - 0000 54.8 53.1 55 38.0 0.00 72.2 0.1 SSW | 192 1.6 265 -63 1.1 - 3.8
4/23/26 - 2300 58.7 54.6 49 37.7 0.00 72.3 0.3 SSW | 194 1.8 264 -67 1.1 - 3.8
4/23/26 - 2200 62.9 58.9 41 37.2 0.00 72.6 1.1 SSW | 193 4.1 264 -74 3.2 - 3.8
4/23/26 - 2100 65.1 62.7 36 36.2 0.00 72.3 3.5 SW | 232 8.6 262 -79 5.2 - 3.8
4/23/26 - 2000 70.8 64.9 33 37.0 0.00 74.3 2.6 WSW | 241 8.0 262 -82 5.2 - 3.8
4/23/26 - 1900 74.1 70.7 27 37.1 0.00 71.8 2.0 W | 278 9.2 262 23 6.5 - 3.8
4/23/26 - 1800 75.9 73.0 29 39.8 0.00 71.3 3.8 W | 276 12.5 261 138 7.4 - 3.8
4/23/26 - 1700 78.1 74.8 29 42.2 0.00 70.8 4.8 WSW | 253 9.8 261 282 6.8 - 3.8
4/23/26 - 1600 77.3 75.6 32 44.7 0.00 70.0 5.1 SSW | 194 11.9 261 420 7.1 - 3.8
4/23/26 - 1500 82.2 77.2 20 35.0 0.00 69.2 2.0 SW | 225 11.4 260 493 5.7 - 3.8
4/23/26 - 1400 81.1 76.7 22 37.0 0.00 71.4 1.4 SW | 235 5.3 260 543 2.9 - 3.8
4/23/26 - 1300 78.4 72.7 28 39.4 0.00 69.2 1.7 E | 101 6.9 260 561 5.1 - 3.8
4/23/26 - 1200 73.4 69.1 35 41.9 0.00 66.0 1.4 NE | 51 6.2 261 531 3.3 - 3.8
4/23/26 - 1100 70.1 66.3 41 43.2 0.00 67.8 1.5 ENE | 76 5.0 261 461 3.5 - 3.8
4/23/26 - 1000 66.5 61.5 46 42.9 0.00 70.3 1.0 ENE | 69 4.6 262 260 2.8 - 3.8
4/23/26 - 0900 61.6 57.9 55 43.5 0.00 68.4 1.1 NE | 56 4.8 264 112 2.6 - 3.8
4/23/26 - 0800 57.9 49.2 61 41.1 0.00 68.4 0.7 ENE | 65 4.4 264 -6 3.3 - 3.8
4/23/26 - 0700 49.2 46.1 72 39.1 0.00 68.7 0.5 SE | 146 3.2 269 -47 0.0 - 3.8
4/23/26 - 0600 47.4 46.0 75 39.2 0.00 69.2 0.4 SSE | 158 2.3 270 -58 0.0 - 3.8
4/23/26 - 0500 48.1 46.3 74 39.1 0.00 69.5 0.1 SSE | 155 1.5 271 -59 0.0 - 3.8
4/23/26 - 0400 49.6 47.9 69 39.1 0.00 69.8 0.3 SSE | 168 2.0 269 -60 0.0 - 3.8
4/23/26 - 0300 49.8 47.9 71 40.0 0.00 70.1 0.4 SE | 141 2.8 269 -62 0.0 - 3.8
4/23/26 - 0200 50.1 48.4 79 42.8 0.00 69.0 0.2 S | 171 1.9 269 -62 0.0 - 3.8
4/23/26 - 0100 51.5 49.9 79 44.3 0.00 69.5 0.2 S | 188 1.7 273 -64 0.0 - 3.8
4/23/26 - 0000 54.9 51.4 73 45.0 0.00 73.6 0.5 S | 191 2.7 270 -69 1.2 - 3.8
4/22/26 - 2300 55.8 54.5 71 45.6 0.00 69.2 0.9 SSW | 206 3.5 268 -70 1.3 - 3.8
4/22/26 - 2200 58.1 55.5 66 45.7 0.00 69.3 1.5 SSW | 212 5.0 267 -71 1.6 - 3.8
4/22/26 - 2100 60.5 57.8 59 44.9 0.00 71.4 3.1 SW | 232 7.1 266 -75 3.0 - 3.8
4/22/26 - 2000 64.6 60.2 54 45.0 0.00 70.9 3.3 WSW | 249 7.4 265 -75 3.2 - 3.8
4/22/26 - 1900 67.9 64.3 46 44.1 0.00 70.7 4.9 WSW | 243 10.3 264 25 4.2 - 3.8
4/22/26 - 1800 69.8 67.1 39 42.3 0.00 68.9 4.4 WSW | 246 10.6 263 178 4.9 - 3.8
4/22/26 - 1700 71.0 67.6 40 43.9 0.00 68.4 4.3 SW | 220 10.0 262 300 4.6 - 3.8
4/22/26 - 1600 70.4 67.6 42 45.1 0.00 69.2 3.5 S | 190 8.3 262 422 4.4 - 3.8
4/22/26 - 1500 71.0 68.2 40 44.5 0.00 68.5 3.5 SSW | 200 8.2 262 556 3.9 - 3.8
4/22/26 - 1400 70.5 66.3 43 44.8 0.00 68.0 3.4 SE | 139 9.0 262 589 3.5 - 3.8
4/22/26 - 1300 70.3 64.2 42 43.7 0.00 67.8 2.2 E | 84 8.4 262 388 2.4 - 3.8
4/22/26 - 1200 68.9 64.2 38 40.5 0.00 66.2 1.3 S | 183 6.0 262 455 2.9 - 3.8
4/22/26 - 1100 65.7 62.4 43 41.4 0.00 67.2 2.4 SW | 222 8.3 262 486 3.7 - 3.8
4/22/26 - 1000 63.1 60.0 53 44.2 0.00 67.2 0.9 W | 260 4.2 263 332 2.2 - 3.8
4/22/26 - 0900 60.0 53.7 73 47.5 0.00 67.7 0.5 WNW | 287 3.8 264 167 2.0 - 3.8
4/22/26 - 0800 53.8 47.4 92 48.2 0.00 68.3 0.2 SSE | 158 1.9 295 17 0.0 - 3.8
4/22/26 - 0700 47.5 45.6 92 44.1 0.00 67.2 0.2 S | 179 1.5 360 -10 0.0 - 3.8
4/22/26 - 0600 47.8 46.1 91 44.4 0.00 66.9 0.2 SSW | 206 1.7 364 -21 0.0 - 3.8
4/22/26 - 0500 48.0 46.9 91 44.8 0.00 70.3 0.1 S | 180 1.3 349 -22 0.0 - 3.8
4/22/26 - 0400 48.8 47.4 90 45.2 0.00 69.1 0.3 SSE | 163 2.1 340 -28 0.0 - 3.8
4/22/26 - 0300 49.1 47.7 88 45.1 0.00 69.1 0.2 SSE | 155 1.7 315 -37 0.0 - 3.8
4/22/26 - 0200 51.8 49.1 83 45.4 0.00 69.6 0.4 SW | 224 1.8 290 -54 0.0 - 3.8
4/22/26 - 0100 52.4 51.1 80 45.9 0.00 69.8 1.4 SW | 215 2.5 277 -62 0.0 - 3.8
4/22/26 - 0000 54.2 51.8 76 45.8 0.00 70.0 0.5 SW | 222 3.3 272 -65 0.0 - 3.8
4/21/26 - 2300 55.2 53.2 75 46.4 0.00 70.0 1.0 SSW | 199 3.6 269 -68 0.9 - 3.8
4/21/26 - 2200 57.3 55.0 71 47.0 0.00 70.1 1.8 SW | 233 4.9 269 -72 2.4 - 3.8
4/21/26 - 2100 59.3 57.2 64 46.1 0.00 70.1 3.5 WSW | 243 7.4 267 -74 3.7 - 3.8
4/21/26 - 2000 62.8 59.1 57 45.1 0.00 70.1 3.9 WSW | 246 10.0 266 -61 4.0 - 3.8
4/21/26 - 1900 64.1 62.4 56 47.0 0.00 70.0 3.1 SSW | 205 8.5 266 24 3.5 - 3.8
4/21/26 - 1800 65.9 63.6 48 44.8 0.00 69.6 4.3 SW | 218 11.3 265 86 5.3 - 3.8
4/21/26 - 1700 67.7 63.8 55 49.0 0.00 69.4 4.3 S | 184 11.5 264 328 5.2 - 3.8
4/21/26 - 1600 64.5 60.6 67 52.2 0.00 68.6 4.1 S | 172 8.3 266 398 4.1 - 3.8
4/21/26 - 1500 62.9 60.9 70 51.7 0.00 69.2 4.0 SSE | 165 9.8 270 243 3.9 - 3.8
4/21/26 - 1400 62.8 60.3 69 51.5 0.00 70.2 3.8 SSE | 147 9.9 266 279 4.2 - 3.8
4/21/26 - 1300 60.9 59.6 69 49.7 0.00 67.4 3.6 SSE | 157 8.1 266 160 3.6 - 3.8
4/21/26 - 1200 60.0 58.3 67 48.0 0.00 67.8 2.5 ESE | 119 8.0 266 97 3.3 - 3.8
4/21/26 - 1100 60.5 57.1 67 47.4 0.00 69.7 2.3 SE | 145 10.3 267 69 4.4 - 3.8
4/21/26 - 1000 60.9 59.2 63 47.4 0.00 69.7 2.2 ESE | 119 8.1 326 117 2.8 - 3.8
4/21/26 - 0900 59.7 53.3 68 46.4 0.00 70.2 0.6 NW | 309 2.9 266 121 1.6 - 3.8
4/21/26 - 0800 53.6 47.7 83 44.9 0.00 70.6 0.3 WSW | 246 3.2 267 26 0.0 - 3.8
4/21/26 - 0700 48.0 45.0 87 42.0 0.00 70.9 0.0 S | 173 0.8 289 -22 0.0 - 3.8
4/21/26 - 0600 46.7 45.0 83 41.0 0.00 71.1 0.1 SSW | 210 1.1 284 -49 0.0 - 3.8
4/21/26 - 0500 47.5 46.0 79 40.4 0.00 71.4 0.1 SE | 133 1.3 274 -59 0.0 - 3.8
4/21/26 - 0400 47.7 47.0 77 40.5 0.00 71.8 0.1 SSW | 195 1.1 272 -60 0.0 - 3.8
4/21/26 - 0300 49.0 47.2 75 40.6 0.00 72.4 0.1 S | 188 1.4 272 -63 0.0 - 3.8
4/21/26 - 0200 50.3 48.8 69 40.0 0.00 74.6 0.1 SSW | 192 1.6 269 -65 0.0 - 3.8
4/21/26 - 0100 53.2 49.8 66 40.3 0.00 71.6 0.1 SSW | 207 1.7 267 -67 0.0 - 3.8
4/21/26 - 0000 55.8 53.1 58 40.5 0.00 73.1 0.7 SSW | 212 4.5 267 -71 0.8 - 3.8
4/20/26 - 2300 56.9 55.2 55 39.9 0.00 73.0 0.4 SSW | 203 2.0 266 -72 0.0 - 3.8
4/20/26 - 2200 61.4 56.7 47 39.3 0.00 73.5 1.3 SW | 223 4.6 265 -77 2.1 - 3.8
4/20/26 - 2100 63.3 61.3 45 40.5 0.00 73.7 1.6 SW | 228 4.9 264 -77 2.1 - 3.8
4/20/26 - 2000 69.2 63.3 42 41.8 0.00 73.6 1.7 SW | 216 5.2 263 -77 2.0 - 3.8
4/20/26 - 1900 72.4 69.1 37 43.1 0.00 73.2 2.1 SSW | 202 6.9 262 12 2.8 - 3.8
4/20/26 - 1800 74.0 71.6 34 43.1 0.00 72.9 3.7 SSW | 209 7.9 262 126 4.0 - 3.8
4/20/26 - 1700 76.3 73.5 33 43.8 0.00 72.2 3.3 S | 181 7.4 262 247 3.5 - 3.8
4/20/26 - 1600 76.3 74.4 29 41.3 0.00 69.1 3.2 SSE | 157 9.0 261 430 4.4 - 3.8
4/20/26 - 1500 76.9 74.5 28 40.5 0.00 71.2 3.6 SSE | 156 8.1 261 508 3.7 - 3.8
4/20/26 - 1400 77.7 74.7 31 43.2 0.00 70.5 3.6 SSE | 168 8.8 261 564 4.4 - 3.8
4/20/26 - 1300 78.5 74.2 32 43.9 0.00 69.7 1.8 E | 91 6.1 261 570 3.2 - 3.8
4/20/26 - 1200 75.0 68.6 38 44.7 0.00 69.5 2.0 WSW | 256 6.8 261 537 3.5 - 3.8
4/20/26 - 1100 71.7 67.5 45 46.8 0.00 69.6 1.2 NE | 42 5.1 261 464 3.2 - 3.8
4/20/26 - 1000 67.6 61.9 54 47.4 0.00 69.7 0.7 NNE | 17 3.9 262 351 1.5 - 3.8
4/20/26 - 0900 62.0 54.1 64 45.8 0.00 68.7 0.5 NE | 55 3.1 263 157 1.0 - 3.8
4/20/26 - 0800 54.2 47.0 82 45.3 0.00 70.4 0.1 NNE | 23 1.7 302 8 0.0 - 3.8
4/20/26 - 0700 47.2 46.0 89 43.2 0.00 68.9 0.0 S | 174 0.7 359 -13 0.0 - 3.8
4/20/26 - 0600 46.9 46.0 88 42.8 0.00 71.3 0.0 SSW | 196 0.8 350 -27 0.0 - 3.8
4/20/26 - 0500 48.2 46.8 86 43.5 0.00 71.3 0.0 SSW | 202 0.9 332 -33 0.0 - 3.8
4/20/26 - 0400 49.2 48.0 84 44.1 0.00 71.8 0.0 SSW | 202 0.2 308 -46 0.0 - 3.8
4/20/26 - 0300 50.9 48.6 82 44.4 0.00 72.2 0.1 S | 183 1.5 284 -62 0.0 - 3.8
4/20/26 - 0200 52.4 50.4 76 44.1 0.00 72.8 0.2 S | 183 1.8 274 -68 0.0 - 3.8
4/20/26 - 0100 55.2 52.3 69 43.8 0.00 73.1 0.0 SSW | 203 1.5 269 -69 0.0 - 3.8
4/20/26 - 0000 57.3 54.2 63 43.0 0.00 73.3 0.1 S | 185 1.4 267 -71 0.0 - 3.8
4/19/26 - 2300 60.8 57.1 53 42.2 0.00 73.6 0.8 SSW | 212 4.4 266 -76 1.5 - 3.8
4/19/26 - 2200 62.1 58.5 52 42.7 0.00 73.7 0.7 SSW | 192 4.9 264 -78 1.8 - 3.8
4/19/26 - 2100 65.0 61.6 45 41.1 0.00 71.5 0.9 SSW | 195 3.4 264 -82 0.3 - 3.8
4/19/26 - 2000 71.2 65.0 27 32.6 0.00 75.5 1.3 SSW | 201 3.6 262 -87 0.9 - 3.8
4/19/26 - 1900 75.4 71.3 17 26.2 0.00 73.2 1.7 S | 190 7.0 260 -0 3.0 - 3.8
4/19/26 - 1800 78.6 75.4 15 26.3 0.00 71.0 3.2 S | 191 6.9 259 149 3.3 - 3.8
4/19/26 - 1700 78.7 76.9 16 28.2 0.00 71.6 3.1 SSE | 166 7.8 259 292 4.1 - 3.8
4/19/26 - 1600 79.6 76.7 18 31.1 0.00 69.4 4.3 S | 177 9.6 259 416 5.0 - 3.8
4/19/26 - 1500 81.4 78.6 18 33.0 0.00 70.8 3.6 ESE | 106 10.1 260 506 5.1 - 3.8
4/19/26 - 1400 81.0 78.0 18 32.6 0.00 70.4 3.1 E | 95 10.4 259 555 4.4 - 3.8
4/19/26 - 1300 80.3 77.7 20 34.4 0.00 70.0 3.0 ESE | 115 9.1 260 566 4.0 - 3.8
4/19/26 - 1200 80.6 76.9 26 40.4 0.00 69.7 2.5 ENE | 75 9.2 260 524 4.2 - 3.8
4/19/26 - 1100 77.8 73.7 32 44.0 0.00 69.7 1.4 ENE | 59 6.3 260 450 2.7 - 3.8
4/19/26 - 1000 74.4 69.1 36 43.5 0.00 69.8 0.8 NE | 36 3.6 260 336 0.0 - 3.8
4/19/26 - 0900 69.3 60.9 48 44.4 0.00 70.2 0.4 NNW | 338 3.7 261 141 1.3 - 3.8
4/19/26 - 0800 61.0 51.4 73 47.0 0.00 69.6 0.1 NNE | 30 2.3 264 -21 0.0 - 3.8
4/19/26 - 0700 51.8 50.4 83 46.0 0.00 71.8 0.1 S | 176 1.2 292 -45 0.0 - 3.8
4/19/26 - 0600 53.3 51.4 82 46.8 0.00 71.0 0.0 SSE | 166 0.5 286 -55 0.0 - 3.8
4/19/26 - 0500 54.3 52.8 79 47.2 0.00 71.2 0.0 S | 186 1.0 275 -55 0.0 - 3.8
4/19/26 - 0400 56.1 54.0 75 47.3 0.00 70.1 0.0 S | 173 1.2 270 -52 0.0 - 3.8
4/19/26 - 0300 56.8 56.0 74 48.3 0.00 71.8 0.1 S | 172 1.6 269 -45 0.0 - 3.8
4/19/26 - 0200 57.2 55.4 73 47.8 0.00 72.0 0.1 SSW | 194 1.3 268 -41 0.0 - 3.8
4/19/26 - 0100 57.7 56.5 68 46.5 0.00 70.3 0.1 S | 187 1.8 267 -54 0.0 - 3.8
4/19/26 - 0000 58.1 56.7 45 36.0 0.00 72.3 0.1 SSW | 200 1.2 265 -63 0.0 - 3.8
4/18/26 - 2300 60.4 57.9 40 34.8 0.00 72.7 0.1 S | 183 1.6 263 -67 0.0 - 3.8
4/18/26 - 2200 66.6 60.2 33 34.1 0.00 72.8 0.3 SSW | 197 2.2 263 -73 0.0 - 3.8
4/18/26 - 2100 68.8 66.5 32 37.2 0.00 72.8 1.2 SSW | 204 5.5 262 -72 1.9 - 3.8
4/18/26 - 2000 74.0 68.2 30 37.8 0.00 74.5 1.3 SW | 236 4.9 262 -82 1.5 - 3.8
4/18/26 - 1900 79.4 73.8 26 39.0 0.00 73.8 1.3 NW | 304 8.2 260 -15 4.0 - 3.8
4/18/26 - 1800 82.1 79.3 16 29.7 0.00 72.0 2.7 SSE | 147 7.6 260 141 5.1 - 3.8
4/18/26 - 1700 82.2 80.4 17 32.9 0.00 71.4 3.8 SSE | 163 8.9 259 289 5.1 - 3.8
4/18/26 - 1600 86.0 80.6 16 32.5 0.00 70.5 2.9 SSE | 161 9.6 260 403 5.5 - 3.8
4/18/26 - 1500 85.7 82.7 12 27.1 0.00 69.8 1.3 NE | 47 6.3 259 487 3.7 - 3.8
4/18/26 - 1400 84.7 80.4 13 27.2 0.00 69.1 2.4 W | 275 7.9 258 543 4.2 - 3.8
4/18/26 - 1300 83.8 79.5 15 29.5 0.00 68.4 0.9 N | 9 4.6 258 550 2.1 - 3.8
4/18/26 - 1200 80.1 74.7 15 26.4 0.00 68.6 1.0 NE | 39 5.4 258 519 2.3 - 3.8
4/18/26 - 1100 76.3 72.9 17 27.2 0.00 68.6 0.8 NE | 50 4.6 258 441 0.0 - 3.8
4/18/26 - 1000 73.6 67.4 17 23.8 0.00 68.6 0.4 NE | 50 2.7 258 335 0.1 - 3.8
4/18/26 - 0900 68.2 57.1 24 25.6 0.00 68.9 0.5 E | 89 2.8 259 149 0.0 - 3.8
4/18/26 - 0800 57.1 46.4 55 35.7 0.00 69.5 0.0 SSE | 165 0.3 263 -18 0.0 - 3.8
4/18/26 - 0700 46.6 45.3 65 34.8 0.00 69.8 0.1 S | 174 1.5 267 -54 0.0 - 3.8
4/18/26 - 0600 47.9 45.3 65 35.4 0.00 70.1 0.2 SSE | 154 2.2 268 -66 0.0 - 3.8
4/18/26 - 0500 50.0 47.7 66 38.1 0.00 70.2 0.0 S | 177 1.1 267 -65 0.0 - 3.8
4/18/26 - 0400 53.7 49.7 58 37.0 0.00 68.8 0.0 SSE | 162 0.6 267 -65 0.0 - 3.8
4/18/26 - 0300 53.8 52.6 38 27.7 0.00 71.1 0.9 SSE | 152 2.7 265 -65 0.0 - 3.8
4/18/26 - 0200 54.8 51.6 31 23.5 0.00 71.5 0.4 SE | 143 2.0 263 -66 0.0 - 3.8
4/18/26 - 0100 55.1 53.6 32 24.7 0.00 71.7 0.6 SSE | 157 2.8 264 -69 0.0 - 3.8
4/18/26 - 0000 57.1 54.0 37 29.9 0.00 71.2 0.5 SSE | 155 2.5 264 -74 0.0 - 3.8
4/17/26 - 2300 60.5 56.5 44 36.8 0.00 70.6 0.6 SSE | 163 2.8 264 -78 0.0 - 3.8
4/17/26 - 2200 62.8 60.4 47 41.7 0.00 74.8 2.6 SW | 225 8.4 264 -86 3.6 - 3.8
4/17/26 - 2100 65.6 62.4 49 44.4 0.00 72.1 5.1 WSW | 240 8.7 264 -90 4.3 - 3.8
4/17/26 - 2000 71.0 65.5 43 44.5 0.00 72.0 4.6 SW | 236 9.3 263 -90 4.3 - 3.8
4/17/26 - 1900 80.0 70.8 28 37.1 0.00 71.4 3.7 SW | 229 13.3 262 -6 6.2 - 3.8
4/17/26 - 1800 82.0 79.3 10 20.1 0.00 71.3 1.0 NNW | 341 6.2 259 140 3.9 - 3.8
4/17/26 - 1700 83.0 81.0 10 21.0 0.00 70.8 0.9 NNW | 347 5.6 259 281 4.3 - 3.8
4/17/26 - 1600 82.8 80.4 11 22.4 0.00 70.9 1.5 N | 352 9.8 259 401 3.1 - 3.8
4/17/26 - 1500 81.7 77.8 16 29.0 0.00 69.2 1.7 E | 94 7.8 260 492 3.2 - 3.8
4/17/26 - 1400 80.4 75.8 19 33.0 0.00 68.6 1.9 ENE | 78 7.3 259 548 3.8 - 3.8
4/17/26 - 1300 77.7 74.2 22 34.4 0.00 68.2 1.9 ENE | 67 10.4 260 556 3.5 - 3.8
4/17/26 - 1200 75.2 69.1 32 40.0 0.00 68.0 1.7 ENE | 74 6.0 261 522 2.8 - 3.8
4/17/26 - 1100 69.8 65.9 46 46.2 0.00 68.1 1.5 ESE | 111 6.1 262 445 2.8 - 3.8
4/17/26 - 1000 66.8 62.6 57 48.8 0.00 67.8 1.3 E | 83 5.3 263 328 2.9 - 3.8
4/17/26 - 0900 62.8 56.7 66 48.0 0.00 68.3 0.7 NE | 55 4.0 264 183 1.7 - 3.8
4/17/26 - 0800 56.7 50.4 90 50.1 0.00 68.9 0.1 NNE | 26 1.8 302 40 0.0 - 3.8
4/17/26 - 0700 50.4 48.3 92 47.0 0.00 69.0 0.3 SSE | 161 2.0 361 -6 0.0 - 3.8
4/17/26 - 0600 49.5 48.5 90 46.3 0.00 69.5 0.2 S | 191 1.5 368 -18 0.0 - 3.8
4/17/26 - 0500 51.5 49.0 88 46.9 0.00 70.0 0.3 S | 189 1.9 368 -22 0.0 - 3.8
4/17/26 - 0400 51.2 48.3 87 46.3 0.00 70.0 0.5 SSE | 150 3.1 350 -28 0.0 - 3.8
4/17/26 - 0300 50.4 48.6 88 46.0 0.00 70.4 0.4 SSE | 163 2.6 339 -34 0.0 - 3.8
4/17/26 - 0200 52.1 49.4 86 47.1 0.00 70.6 0.2 S | 190 2.3 321 -43 0.0 - 3.8
4/17/26 - 0100 53.5 51.9 83 47.7 0.00 70.9 0.2 S | 185 2.7 295 -56 0.0 - 3.8
4/17/26 - 0000 55.2 53.2 80 47.8 0.00 71.0 0.1 S | 179 1.0 279 -63 0.0 - 3.8
4/16/26 - 2300 56.9 55.1 74 47.8 0.00 71.3 0.0 S | 179 1.1 272 -65 0.0 - 3.8
4/16/26 - 2200 59.8 56.7 68 47.5 0.00 71.4 0.1 SSW | 203 1.4 269 -65 0.0 - 3.8
4/16/26 - 2100 62.4 59.4 63 47.8 0.00 71.3 1.1 SSW | 206 2.7 267 -70 0.8 - 3.8
4/16/26 - 2000 66.5 62.3 55 47.4 0.00 72.6 1.3 SSW | 202 4.1 266 -75 1.9 - 3.8
4/16/26 - 1900 70.4 66.3 46 47.0 0.00 73.7 2.7 S | 182 5.9 264 5 3.0 - 3.8
4/16/26 - 1800 72.6 70.2 42 47.2 0.00 71.4 3.3 S | 181 8.1 263 153 3.9 - 3.8
4/16/26 - 1700 73.6 71.8 38 45.7 0.00 69.5 3.8 SSE | 157 8.7 262 296 4.1 - 3.8
4/16/26 - 1600 74.2 72.1 36 44.8 0.00 69.4 4.2 SSE | 148 9.3 262 430 5.0 - 3.8
4/16/26 - 1500 77.2 72.8 37 46.3 0.00 68.8 4.0 S | 186 9.6 262 513 5.0 - 3.8
4/16/26 - 1400 77.0 72.5 34 43.9 0.00 66.0 1.8 SSE | 157 6.9 261 520 3.8 - 3.8
4/16/26 - 1300 75.0 69.9 34 42.3 0.00 68.3 2.0 SSE | 150 6.5 262 462 3.7 - 3.8
4/16/26 - 1200 73.0 68.3 43 47.0 0.00 68.0 2.0 SSE | 154 6.3 262 468 3.5 - 3.8
4/16/26 - 1100 69.4 66.8 48 48.0 0.00 67.9 0.8 ENE | 63 3.8 263 333 2.0 - 3.8
4/16/26 - 1000 66.8 60.0 58 47.6 0.00 68.3 0.8 ESE | 108 4.0 263 272 2.1 - 3.8
4/16/26 - 0900 60.0 55.0 66 46.0 0.00 68.3 0.1 S | 185 2.1 266 82 0.0 - 3.8
4/16/26 - 0800 55.0 50.4 79 46.1 0.00 68.8 0.0 SSE | 155 1.0 269 12 0.0 - 3.8
4/16/26 - 0700 50.5 49.5 82 44.6 0.00 68.8 0.2 S | 184 1.3 273 -33 0.0 - 3.8
4/16/26 - 0600 50.5 49.6 81 44.3 0.00 69.2 0.0 S | 175 0.8 275 -40 0.0 - 3.8
4/16/26 - 0500 50.5 49.1 79 43.6 0.00 69.0 0.2 S | 170 1.3 273 -41 0.0 - 3.8
4/16/26 - 0400 50.1 49.2 78 43.1 0.00 68.0 0.1 SSE | 148 1.3 273 -45 0.0 - 3.8
4/16/26 - 0300 49.8 48.8 79 43.0 0.00 72.7 0.0 SSE | 149 1.2 282 -52 0.0 - 3.8
4/16/26 - 0200 50.4 49.2 80 43.8 0.00 71.4 0.1 SSE | 149 1.1 294 -59 0.0 - 3.8
4/16/26 - 0100 51.9 50.4 79 44.9 0.00 70.8 0.0 SE | 145 0.7 289 -66 0.0 - 3.8
4/16/26 - 0000 54.3 51.4 75 45.1 0.00 71.0 0.1 S | 184 1.7 277 -70 0.0 - 3.8
4/15/26 - 2300 58.1 54.1 68 45.2 0.00 71.2 0.4 SSW | 204 2.3 269 -74 0.0 - 3.8
4/15/26 - 2200 60.7 57.8 60 45.3 0.00 71.2 1.1 SSW | 205 3.2 267 -77 0.0 - 3.8
4/15/26 - 2100 63.7 60.4 54 45.0 0.00 71.0 1.2 SW | 229 4.1 266 -80 0.6 - 3.8
4/15/26 - 2000 69.4 63.4 48 45.6 0.00 71.1 1.2 WSW | 255 6.4 264 -82 1.4 - 3.8
4/15/26 - 1900 73.3 69.2 37 43.7 0.00 70.2 1.6 W | 278 7.6 263 -9 2.7 - 3.8
4/15/26 - 1800 74.5 72.9 31 41.3 0.00 69.8 3.3 SSW | 206 7.2 262 160 2.8 - 3.8
4/15/26 - 1700 75.0 73.5 34 44.1 0.00 69.6 4.3 SSW | 212 10.0 262 303 3.4 - 3.8
4/15/26 - 1600 75.2 73.9 34 44.7 0.00 69.2 4.3 S | 176 10.4 262 429 3.9 - 3.8
4/15/26 - 1500 77.4 73.4 37 47.2 0.00 65.9 3.1 S | 173 8.7 262 484 3.9 - 3.8
4/15/26 - 1400 75.8 73.6 41 49.2 0.00 67.5 3.3 SSE | 163 8.3 262 566 3.6 - 3.8
4/15/26 - 1300 77.4 72.8 38 47.5 0.00 67.0 1.7 S | 177 7.4 262 578 3.0 - 3.8
4/15/26 - 1200 74.9 70.9 38 46.1 0.00 64.8 1.0 NNE | 21 5.1 262 529 1.9 - 3.8
4/15/26 - 1100 71.1 66.7 42 45.0 0.00 66.8 0.9 NE | 40 4.1 262 454 2.0 - 3.8
4/15/26 - 1000 68.0 62.0 51 46.1 0.00 69.8 0.8 NE | 53 4.3 262 341 1.3 - 3.8
4/15/26 - 0900 62.0 55.5 62 46.4 0.00 67.5 0.2 NNW | 336 2.4 263 180 0.8 - 3.8
4/15/26 - 0800 55.6 46.1 87 45.9 0.00 66.1 0.1 NNE | 28 1.3 321 26 0.0 - 3.8
4/15/26 - 0700 46.1 45.2 90 42.8 0.00 68.0 0.1 S | 182 1.0 365 -14 0.0 - 3.8
4/15/26 - 0600 47.0 45.9 88 43.0 0.00 68.3 0.0 S | 170 0.9 364 -24 0.0 - 3.8
4/15/26 - 0500 47.2 46.2 87 42.9 0.00 68.3 0.2 SSE | 153 1.7 347 -29 0.0 - 3.8
4/15/26 - 0400 47.8 47.0 86 43.3 0.00 70.7 0.2 SSE | 156 1.4 331 -38 0.0 - 3.8
4/15/26 - 0300 48.6 47.4 84 43.2 0.00 70.2 0.1 SSE | 161 1.4 309 -53 0.0 - 3.8
4/15/26 - 0200 49.8 48.0 81 43.3 0.00 69.8 0.0 SSW | 192 1.0 289 -64 0.0 - 3.8
4/15/26 - 0100 51.3 49.4 76 42.8 0.00 70.1 0.6 S | 186 2.6 274 -66 0.0 - 3.8
4/15/26 - 0000 53.0 51.0 70 42.4 0.00 70.3 0.2 SSW | 207 1.9 269 -67 0.0 - 3.8
4/14/26 - 2300 56.2 52.5 64 42.1 0.00 69.7 0.3 S | 191 2.1 269 -70 0.0 - 3.8
4/14/26 - 2200 58.1 56.0 55 41.0 0.00 70.4 0.9 SSW | 200 4.9 267 -76 1.4 - 3.8
4/14/26 - 2100 61.0 57.9 50 40.5 0.00 69.5 3.0 SW | 227 7.1 265 -83 2.6 - 3.8
4/14/26 - 2000 66.7 60.9 42 40.2 0.00 70.7 3.3 W | 270 8.5 264 -84 3.7 - 3.8
4/14/26 - 1900 69.5 66.7 39 42.7 0.00 68.9 2.9 W | 266 8.7 263 7 4.2 - 3.8
4/14/26 - 1800 72.6 69.4 39 45.4 0.00 67.1 4.3 WSW | 250 10.1 263 163 4.2 - 3.8
4/14/26 - 1700 73.8 71.1 42 48.3 0.00 69.2 4.2 SW | 231 9.6 263 305 4.7 - 3.8
4/14/26 - 1600 73.3 71.7 44 49.0 0.00 66.3 4.0 S | 188 8.3 263 433 4.3 - 3.8
4/14/26 - 1500 76.6 71.5 38 46.1 0.00 66.7 3.0 S | 185 10.2 263 516 3.9 - 3.8
4/14/26 - 1400 76.6 72.3 30 40.9 0.00 66.6 1.6 NNE | 18 5.9 261 560 2.7 - 3.8
4/14/26 - 1300 73.4 69.8 32 40.2 0.00 64.5 1.5 NE | 41 5.5 262 570 2.4 - 3.8
4/14/26 - 1200 71.8 67.0 34 39.7 0.00 66.3 0.7 N | 350 4.3 261 534 2.1 - 3.8
4/14/26 - 1100 67.2 62.5 46 43.6 0.00 66.4 0.7 NNE | 21 4.4 262 456 1.7 - 3.8
4/14/26 - 1000 63.0 57.8 56 44.6 0.00 66.3 0.6 N | 7 4.3 262 341 1.1 - 3.8
4/14/26 - 0900 58.2 51.8 73 46.5 0.00 65.2 0.3 NNE | 29 2.9 264 219 0.8 - 3.8
4/14/26 - 0800 51.8 44.0 93 45.4 0.01 68.9 0.1 E | 87 2.6 347 31 0.0 - 3.8
4/14/26 - 0700 44.4 43.6 93 42.0 0.00 65.3 0.0 SSE | 152 0.9 376 -12 0.0 - 3.8
4/14/26 - 0600 44.5 43.9 92 42.1 0.00 69.6 0.0 SSE | 168 0.8 375 -20 0.0 - 3.8
4/14/26 - 0500 45.3 44.2 92 42.6 0.00 67.8 0.0 SSE | 167 0.7 374 -22 0.0 - 3.8
4/14/26 - 0400 46.1 44.6 90 42.9 0.00 66.4 0.2 SSE | 164 1.5 371 -26 0.0 - 3.8
4/14/26 - 0300 47.2 45.7 90 43.6 0.00 68.2 0.4 SSE | 166 2.0 355 -32 0.0 - 3.8
4/14/26 - 0200 48.3 46.4 87 43.6 0.00 69.7 0.3 S | 169 2.0 332 -45 0.0 - 3.8
4/14/26 - 0100 50.7 47.9 84 44.8 0.00 70.3 0.6 SSW | 207 2.3 302 -58 0.0 - 3.8
4/14/26 - 0000 52.3 48.6 80 44.6 0.00 67.5 0.4 S | 185 2.4 286 -67 0.0 - 3.8
4/13/26 - 2300 53.5 52.2 75 45.2 0.00 67.2 1.0 SSW | 205 3.6 272 -70 1.2 - 3.8
4/13/26 - 2200 55.1 53.0 71 44.7 0.00 68.8 1.1 SSW | 206 6.1 269 -72 2.0 - 3.8
4/13/26 - 2100 57.4 54.4 65 44.3 0.00 69.7 2.9 SW | 233 8.2 267 -77 3.4 - 3.8
4/13/26 - 2000 62.6 57.3 54 42.4 0.00 69.8 4.0 WSW | 241 9.4 266 -76 3.7 - 3.8
4/13/26 - 1900 64.0 62.0 45 41.4 0.00 69.9 1.9 W | 280 9.3 264 30 3.6 - 3.8
4/13/26 - 1800 66.4 62.9 43 41.8 0.00 69.5 2.3 W | 277 10.4 264 176 3.0 - 3.8
4/13/26 - 1700 64.7 60.5 49 42.3 0.00 68.8 2.4 SE | 145 6.3 263 104 3.6 - 3.8
4/13/26 - 1600 68.0 63.2 36 38.8 0.00 70.6 1.5 N | 7 8.0 263 336 2.4 - 3.8
4/13/26 - 1500 66.8 62.3 40 39.5 0.00 70.0 1.3 NW | 315 8.5 262 391 2.9 - 3.8
4/13/26 - 1400 63.4 58.0 50 42.0 0.00 66.1 3.2 W | 274 12.6 263 202 3.9 - 3.8
4/13/26 - 1300 65.5 61.4 42 40.0 0.00 65.4 3.6 SSW | 208 10.7 264 323 4.2 - 3.8
4/13/26 - 1200 66.4 62.2 38 38.0 0.00 69.8 2.3 WSW | 239 8.0 262 420 3.3 - 3.8
4/13/26 - 1100 63.8 59.7 45 40.5 0.00 66.4 1.7 SE | 136 6.6 262 476 3.1 - 3.8
4/13/26 - 1000 62.1 57.7 55 44.0 0.00 67.9 0.7 NW | 317 5.6 263 331 2.4 - 3.8
4/13/26 - 0900 59.1 53.2 69 45.8 0.00 66.6 1.0 W | 281 4.7 264 176 1.6 - 3.8
4/13/26 - 0800 53.4 47.0 88 47.0 0.00 68.5 0.6 SW | 219 3.0 299 12 0.0 - 3.8
4/13/26 - 0700 47.6 46.9 90 44.4 0.00 68.7 0.3 S | 178 1.3 342 -32 0.0 - 3.8
4/13/26 - 0600 49.7 47.3 87 45.2 0.00 67.0 0.3 SSW | 202 1.9 314 -53 0.0 - 3.8
4/13/26 - 0500 49.6 48.5 86 45.0 0.00 69.3 0.3 SW | 216 2.9 293 -36 0.0 - 3.8
4/13/26 - 0400 51.6 49.5 82 45.8 0.00 69.3 0.2 SSW | 194 2.6 285 -48 0.0 - 3.8
4/13/26 - 0300 51.3 49.8 85 46.2 0.00 67.8 0.1 SSW | 192 1.1 290 -24 0.0 - 3.8
4/13/26 - 0200 50.0 48.2 86 45.3 0.00 72.3 0.0 SSE | 156 0.3 298 -28 0.0 - 3.8
4/13/26 - 0100 48.4 47.8 84 43.7 0.00 68.7 0.1 SSE | 161 1.1 299 -49 0.0 - 3.8
4/13/26 - 0000 50.1 48.3 81 43.5 0.00 69.1 0.3 S | 183 1.4 286 -67 0.0 - 3.8
4/12/26 - 2300 53.2 49.8 72 43.1 0.00 73.6 0.7 SSW | 197 4.0 273 -71 1.0 - 3.8
4/12/26 - 2200 54.9 53.0 63 41.6 0.00 69.2 1.5 SW | 222 5.0 267 -76 1.5 - 3.8
4/12/26 - 2100 56.5 54.6 63 43.1 0.00 71.4 2.1 SW | 223 5.0 266 -80 2.1 - 3.8
4/12/26 - 2000 60.1 56.4 61 44.2 0.00 71.5 2.8 SW | 214 6.7 266 -79 2.4 - 3.8
4/12/26 - 1900 63.1 59.8 50 42.3 0.00 69.5 4.0 SW | 235 8.4 265 10 3.8 - 3.8
4/12/26 - 1800 64.1 61.5 48 42.8 0.00 73.5 4.5 SW | 220 10.4 264 96 4.1 - 3.8
4/12/26 - 1700 67.9 63.3 37 38.6 0.00 71.1 4.1 SW | 233 9.8 264 241 4.0 - 3.8
4/12/26 - 1600 68.4 65.9 28 33.0 0.00 70.2 4.6 WSW | 250 11.4 262 440 5.1 - 3.8
4/12/26 - 1500 68.6 65.3 33 37.0 0.00 68.1 4.6 SW | 235 13.4 262 550 5.0 - 3.8
4/12/26 - 1400 66.7 64.2 40 40.8 0.00 68.2 4.8 WSW | 241 11.2 263 422 5.0 - 3.8
4/12/26 - 1300 66.1 62.4 44 41.7 0.00 69.6 4.3 SW | 235 11.5 263 506 4.6 - 3.8
4/12/26 - 1200 63.7 61.4 51 43.6 0.00 69.4 4.6 WSW | 242 10.2 264 294 4.1 - 3.8
4/12/26 - 1100 63.8 60.9 55 45.5 0.00 68.2 4.0 WSW | 252 11.7 265 398 4.2 - 3.8
4/12/26 - 1000 62.0 58.0 68 48.9 0.00 68.3 3.3 SW | 232 7.8 264 301 3.4 - 3.8
4/12/26 - 0900 59.2 55.1 82 51.1 0.00 70.7 3.9 SW | 235 8.4 267 198 2.7 - 3.8
4/12/26 - 0800 55.4 54.4 90 52.0 0.01 71.6 2.0 SW | 217 5.2 320 36 2.2 - 3.8
4/12/26 - 0700 55.8 54.6 90 52.4 0.12 70.7 1.0 SW | 234 5.7 522 -6 0.5 - 3.8
4/12/26 - 0600 56.0 55.5 88 52.2 0.07 72.8 0.4 SW | 231 3.6 444 -7 0.0 - 3.8
4/12/26 - 0500 56.7 55.6 84 51.4 0.04 69.7 1.2 S | 172 5.7 467 -8 1.6 51.6 3.8
4/12/26 - 0400 56.1 55.5 84 51.2 0.01 68.8 0.4 SE | 130 3.5 370 -8 1.1 - 3.8
4/12/26 - 0300 55.7 53.3 82 49.1 0.00 73.3 0.2 S | 171 2.2 269 -22 1.2 - 3.8
4/12/26 - 0200 55.2 52.7 80 47.7 0.00 69.8 0.5 SSW | 204 2.8 271 -50 0.0 - 3.8
4/12/26 - 0100 55.7 54.4 76 47.4 0.00 71.7 0.1 SSW | 192 1.0 270 -38 0.0 - 3.8
4/12/26 - 0000 55.1 53.5 74 46.1 0.00 72.5 0.2 S | 169 1.4 269 -32 0.0 - 3.8
4/11/26 - 2300 55.7 53.0 73 45.5 0.00 72.8 0.3 S | 177 2.3 269 -64 0.2 - 3.8
4/11/26 - 2200 57.2 55.4 69 45.9 0.00 72.7 1.3 S | 190 4.3 269 -74 1.8 - 3.8
4/11/26 - 2100 59.0 57.0 65 46.2 0.00 71.6 3.0 SW | 234 7.3 267 -80 2.9 - 3.8
4/11/26 - 2000 61.8 58.8 59 45.7 0.00 72.7 3.5 SW | 216 7.1 266 -81 3.0 - 3.8
4/11/26 - 1900 65.4 61.8 49 44.1 0.00 72.5 3.8 SW | 220 9.0 264 4 3.8 - 3.8
4/11/26 - 1800 67.3 65.3 44 43.8 0.00 72.0 4.1 S | 180 9.4 264 160 4.7 - 3.8
4/11/26 - 1700 69.5 66.7 37 41.0 0.00 71.9 4.7 SSE | 162 9.6 263 301 4.5 - 3.8
4/11/26 - 1600 70.6 68.9 34 40.2 0.00 71.0 4.0 SSE | 154 8.8 262 421 4.2 - 3.8
4/11/26 - 1500 70.6 67.8 39 43.0 0.00 70.9 3.9 S | 178 9.2 262 509 4.6 - 3.8
4/11/26 - 1400 70.0 67.6 40 43.3 0.00 70.2 4.0 SSE | 161 9.8 262 554 4.4 - 3.8
4/11/26 - 1300 69.7 66.7 43 44.8 0.00 70.0 4.1 S | 172 10.9 262 575 4.4 - 3.8
4/11/26 - 1200 69.7 66.7 44 45.4 0.00 69.4 3.5 SE | 140 11.7 262 587 5.0 - 3.8
4/11/26 - 1100 68.4 63.1 52 47.6 0.00 69.6 2.8 S | 178 9.6 262 472 4.2 - 3.8
4/11/26 - 1000 65.9 60.4 63 49.7 0.00 69.8 0.9 SW | 229 4.0 264 224 2.3 - 3.8
4/11/26 - 0900 63.9 59.4 67 50.8 0.00 69.9 0.4 NNW | 344 2.8 266 223 1.3 - 3.8
4/11/26 - 0800 59.5 50.7 90 51.2 0.00 67.7 0.0 SE | 138 1.0 320 38 0.0 - 3.8
4/11/26 - 0700 51.2 49.7 91 47.9 0.00 71.3 0.3 SSW | 201 1.8 355 -19 0.0 - 3.8
4/11/26 - 0600 51.9 50.8 90 48.4 0.00 72.8 0.2 S | 187 1.8 339 -26 0.0 - 3.8
4/11/26 - 0500 53.0 50.8 87 48.5 0.00 71.4 0.3 SSW | 196 2.0 320 -48 0.0 - 3.8
4/11/26 - 0400 55.9 52.7 83 49.4 0.00 71.6 0.5 S | 185 2.6 290 -58 0.0 - 3.8
4/11/26 - 0300 56.1 55.0 81 49.9 0.00 71.8 1.1 SSW | 204 4.2 273 -57 1.1 - 3.8
4/11/26 - 0200 58.1 55.7 77 50.2 0.00 72.2 1.6 SW | 236 4.0 272 -48 1.4 - 3.8
4/11/26 - 0100 57.1 56.3 80 50.5 0.00 72.4 1.1 SSW | 205 3.1 270 -47 1.4 - 3.8
4/11/26 - 0000 58.4 56.6 77 50.2 0.00 72.7 1.7 SW | 215 4.9 271 -68 2.1 - 3.8
4/10/26 - 2300 59.7 58.1 73 50.3 0.00 72.6 2.4 WSW | 244 6.9 268 -58 2.4 - 3.8
4/10/26 - 2200 60.4 58.3 74 50.7 0.00 72.9 4.0 WSW | 247 8.9 268 -67 3.6 - 3.8
4/10/26 - 2100 62.6 60.1 68 50.8 0.00 72.7 3.3 WSW | 256 7.4 267 -52 2.4 - 3.8
4/10/26 - 2000 64.9 62.6 60 49.5 0.00 72.6 2.7 SSW | 213 7.8 266 -56 3.4 - 3.8
4/10/26 - 1900 69.4 64.8 50 47.9 0.00 72.4 3.1 SSE | 164 7.0 265 -5 3.4 - 3.8
4/10/26 - 1800 70.6 68.9 45 47.6 0.00 72.3 3.7 SSE | 162 8.9 264 156 4.5 - 3.8
4/10/26 - 1700 72.4 70.4 44 48.4 0.00 71.6 3.8 S | 174 8.3 264 305 3.6 - 3.8
4/10/26 - 1600 73.7 70.8 44 48.8 0.00 74.1 3.7 SSE | 168 8.7 263 335 5.6 - 3.8
4/10/26 - 1500 74.0 71.8 43 49.1 0.00 69.1 3.9 SSE | 163 8.1 263 510 4.4 - 3.8
4/10/26 - 1400 73.2 70.3 45 48.9 0.00 67.5 3.8 S | 169 10.0 262 478 4.6 - 3.8
4/10/26 - 1300 71.5 69.5 49 50.5 0.00 71.4 3.5 SSE | 162 8.0 263 423 3.6 - 3.8
4/10/26 - 1200 70.5 67.9 57 53.2 0.00 73.1 2.5 SSE | 157 7.6 264 339 3.9 - 3.8
4/10/26 - 1100 70.6 67.2 60 54.0 0.00 70.2 1.2 ENE | 60 6.3 266 269 3.1 - 3.8
4/10/26 - 1000 67.2 61.6 70 53.8 0.00 70.3 1.6 ESE | 109 5.4 265 224 2.0 - 3.8
4/10/26 - 0900 62.5 59.2 76 53.4 0.00 70.7 1.0 ESE | 102 4.8 268 75 1.7 - 3.8
4/10/26 - 0800 59.3 56.0 86 53.5 0.00 67.9 0.5 ESE | 110 2.7 269 20 0.5 - 3.8
4/10/26 - 0700 56.2 55.3 90 52.7 0.00 73.2 0.1 SSW | 202 1.2 284 -20 0.0 - 3.8
4/10/26 - 0600 57.4 55.7 88 53.2 0.00 72.6 0.4 SSE | 159 1.8 282 -39 0.0 - 3.8
4/10/26 - 0500 58.1 57.3 88 54.1 0.00 71.6 0.6 E | 100 3.2 274 -21 0.0 - 3.8
4/10/26 - 0400 57.8 54.1 88 53.0 0.00 71.7 0.4 E | 100 2.9 275 -14 1.0 - 3.8
4/10/26 - 0300 55.1 54.3 83 49.8 0.00 72.1 0.0 S | 175 0.9 292 -46 0.0 - 3.8
4/10/26 - 0200 56.6 54.6 76 47.9 0.00 72.4 0.1 S | 179 1.5 273 -57 0.0 - 3.8
4/10/26 - 0100 58.2 55.7 72 47.6 0.00 72.8 0.5 SSW | 196 2.6 269 -59 0.0 - 3.8
4/10/26 - 0000 60.5 58.0 66 47.6 0.00 72.8 0.8 SSW | 201 2.3 268 -60 0.0 - 3.8
4/9/26 - 2300 63.6 60.0 59 47.8 0.00 73.0 0.5 S | 189 2.2 266 -55 0.6 - 3.8
4/9/26 - 2200 65.4 63.1 57 48.6 0.00 72.9 1.1 SW | 220 3.1 266 -56 0.9 - 3.8
4/9/26 - 2100 67.6 65.3 53 48.6 0.00 72.8 1.8 SW | 235 5.4 265 -61 1.9 - 3.8
4/9/26 - 2000 69.1 67.2 51 49.2 0.00 72.9 3.7 WSW | 244 10.2 264 -57 3.8 - 3.8
4/9/26 - 1900 74.3 68.9 44 48.4 0.00 72.8 5.0 WSW | 252 10.5 264 -20 5.0 - 3.8
4/9/26 - 1800 77.8 74.2 40 50.0 0.00 72.6 3.0 W | 272 12.2 263 108 4.3 - 3.8
4/9/26 - 1700 77.6 74.8 39 48.9 0.00 72.0 4.0 WSW | 254 10.7 262 177 6.2 - 3.8
4/9/26 - 1600 77.3 75.2 40 50.1 0.00 71.6 4.6 WSW | 253 11.5 263 139 5.5 - 3.8
4/9/26 - 1500 77.7 75.8 47 54.8 0.00 71.1 3.5 S | 182 9.7 263 358 4.3 - 3.8
4/9/26 - 1400 80.8 74.9 45 54.8 0.00 70.6 3.3 SSE | 159 8.8 263 363 4.2 - 3.8
4/9/26 - 1300 80.9 76.5 45 55.7 0.00 70.3 1.8 E | 79 9.1 263 462 3.4 - 3.8
4/9/26 - 1200 79.1 75.3 46 54.8 0.00 70.2 1.3 ENE | 57 4.6 263 457 2.9 - 3.8
4/9/26 - 1100 76.1 71.0 52 54.8 0.00 70.3 0.7 NNE | 23 4.1 262 423 2.8 - 3.8
4/9/26 - 1000 71.2 66.3 60 53.9 0.00 70.4 0.6 ENE | 57 3.9 263 308 1.9 - 3.8
4/9/26 - 0900 66.4 60.0 75 55.1 0.00 70.7 0.3 SSE | 160 3.2 265 209 1.9 - 3.8
4/9/26 - 0800 60.0 53.3 93 53.3 0.00 71.1 0.0 SSE | 151 0.6 340 42 0.0 - 3.8
4/9/26 - 0700 53.9 53.1 93 51.4 0.00 71.4 0.0 SSE | 168 1.2 367 -11 0.0 - 3.8
4/9/26 - 0600 54.8 53.4 92 51.7 0.00 71.6 0.1 S | 169 1.0 365 -17 0.0 - 3.8
4/9/26 - 0500 55.4 54.4 91 52.4 0.00 72.0 0.1 SSW | 198 1.3 359 -18 0.0 - 3.8
4/9/26 - 0400 56.2 55.3 91 53.0 0.00 72.2 0.1 SSE | 155 1.0 357 -20 0.0 - 3.8
4/9/26 - 0300 56.7 55.6 90 53.2 0.00 72.5 0.2 SSE | 158 2.2 354 -24 0.0 - 3.8
4/9/26 - 0200 58.0 56.5 88 53.6 0.00 72.7 0.2 SSE | 160 2.0 341 -30 0.0 - 3.8
4/9/26 - 0100 59.8 57.6 86 54.2 0.00 73.2 0.3 SSW | 198 2.0 318 -39 0.0 - 3.8
4/9/26 - 0000 60.4 59.5 84 55.0 0.00 73.2 0.0 SSE | 160 1.0 300 -51 0.0 - 3.8
4/8/26 - 2300 62.4 60.3 81 55.3 0.00 73.5 0.0 ESE | 121 0.7 283 -66 0.0 - 3.8
4/8/26 - 2200 65.8 62.3 73 55.5 0.00 73.6 0.1 ENE | 72 2.0 271 -72 0.0 - 3.8
4/8/26 - 2100 69.0 65.5 67 55.4 0.00 73.6 0.1 ESE | 113 1.2 267 -74 0.0 - 3.8
4/8/26 - 2000 76.4 68.9 51 52.0 0.00 73.2 0.3 SE | 138 2.4 266 -79 0.2 - 3.8
4/8/26 - 1900 80.8 76.3 36 49.4 0.00 73.1 0.9 WNW | 287 7.1 262 -10 1.8 - 3.8
4/8/26 - 1800 85.2 80.4 35 52.8 0.00 72.7 0.9 NW | 312 7.1 262 140 3.0 - 3.8
4/8/26 - 1700 85.6 83.7 36 54.8 0.00 71.8 1.1 NE | 35 4.8 262 279 3.1 - 3.8
4/8/26 - 1600 86.8 83.9 35 54.6 0.00 71.1 1.5 NE | 47 6.1 262 393 2.6 - 3.8
4/8/26 - 1500 85.8 82.7 37 55.3 0.00 70.6 1.9 NE | 55 7.1 262 481 3.9 - 3.8
4/8/26 - 1400 86.0 83.2 35 53.6 0.00 70.1 1.8 NE | 48 6.4 261 532 4.1 - 3.8
4/8/26 - 1300 85.3 80.3 28 47.0 0.00 69.7 1.0 NNE | 28 5.2 260 544 3.5 - 3.8
4/8/26 - 1200 81.5 77.5 35 49.2 0.00 69.3 0.7 NNE | 16 3.9 261 511 2.1 - 3.8
4/8/26 - 1100 77.8 70.9 46 52.3 0.00 69.6 0.5 NNE | 16 4.8 262 434 1.6 - 3.8
4/8/26 - 1000 71.3 65.3 57 52.6 0.00 69.9 0.5 NNW | 340 2.7 263 324 1.5 - 3.8
4/8/26 - 0900 66.7 58.8 71 53.1 0.00 69.8 0.3 N | 352 2.5 264 235 1.4 - 3.8
4/8/26 - 0800 58.8 50.5 94 52.3 0.00 70.4 0.2 SSW | 193 2.0 338 42 0.0 - 3.8
4/8/26 - 0700 51.1 50.2 95 49.2 0.00 70.7 0.1 S | 187 1.4 375 -11 0.0 - 3.8
4/8/26 - 0600 52.2 50.2 94 49.7 0.00 70.9 0.4 S | 190 3.2 380 -16 0.0 - 3.8
4/8/26 - 0500 53.0 51.5 93 50.4 0.00 71.2 0.2 S | 179 1.5 377 -17 0.0 - 3.8
4/8/26 - 0400 53.6 52.7 92 50.9 0.00 71.5 0.3 S | 183 2.4 364 -19 0.0 - 3.8
4/8/26 - 0300 55.0 53.5 91 51.6 0.00 71.8 0.2 S | 186 2.2 366 -22 0.0 - 3.8
4/8/26 - 0200 55.4 54.5 90 52.0 0.00 72.1 0.3 S | 173 1.7 358 -27 0.0 - 3.8
4/8/26 - 0100 56.6 54.4 88 52.4 0.00 72.6 0.2 SSE | 167 1.6 335 -35 0.0 - 3.8
4/8/26 - 0000 58.2 56.0 87 53.3 0.00 72.8 0.4 SSW | 202 2.4 309 -51 0.0 - 3.8
4/7/26 - 2300 60.9 57.9 82 53.8 0.00 73.0 0.3 SSW | 195 1.7 287 -67 0.0 - 3.8
4/7/26 - 2200 65.1 60.7 74 54.3 0.00 73.1 0.1 ESE | 112 1.9 273 -73 0.0 - 3.8
4/7/26 - 2100 67.5 64.5 68 55.2 0.00 72.9 0.1 NE | 42 1.8 268 -75 0.2 - 3.8
4/7/26 - 2000 73.2 67.4 57 54.0 0.00 72.8 0.5 SW | 220 4.0 266 -79 1.5 - 3.8
4/7/26 - 1900 77.4 73.2 49 54.7 0.00 72.2 2.4 SW | 222 6.4 264 -8 3.1 - 3.8
4/7/26 - 1800 79.1 77.0 49 57.7 0.00 72.0 2.3 S | 169 7.3 263 142 3.2 - 3.8
4/7/26 - 1700 84.1 78.8 42 56.4 0.00 71.3 2.1 ESE | 111 5.5 263 279 3.6 - 3.8
4/7/26 - 1600 84.7 81.8 38 55.5 0.00 70.6 1.7 NE | 38 5.5 262 398 1.9 - 3.8
4/7/26 - 1500 83.6 81.0 41 56.1 0.00 70.0 2.2 ENE | 62 6.9 262 490 3.3 - 3.8
4/7/26 - 1400 84.0 80.9 33 50.7 0.00 69.5 2.0 ESE | 115 7.0 262 534 3.4 - 3.8
4/7/26 - 1300 82.6 78.5 34 49.7 0.00 69.4 0.9 N | 358 4.9 261 540 3.3 - 3.8
4/7/26 - 1200 78.6 73.8 39 49.4 0.00 69.0 0.7 NNE | 26 4.1 261 505 2.6 - 3.8
4/7/26 - 1100 74.6 68.3 48 50.1 0.00 68.9 0.8 W | 281 3.2 262 427 1.5 - 3.8
4/7/26 - 1000 69.2 63.9 58 51.2 0.00 69.1 0.5 WSW | 253 3.1 262 313 1.6 - 3.8
4/7/26 - 0900 64.8 58.8 68 51.8 0.00 69.6 0.1 ESE | 111 2.3 264 209 1.0 - 3.8
4/7/26 - 0800 58.8 49.8 92 51.6 0.00 69.8 0.0 N | 0 0.0 325 48 0.0 - 3.8
4/7/26 - 0700 51.0 49.7 92 48.2 0.00 70.2 0.2 S | 188 2.1 359 -13 0.0 - 3.8
4/7/26 - 0600 51.9 50.5 92 48.8 0.00 70.6 0.0 SSE | 168 1.1 353 -19 0.0 - 3.8
4/7/26 - 0500 52.4 51.2 90 48.9 0.00 71.0 0.0 SSE | 160 0.9 345 -22 0.0 - 3.8
4/7/26 - 0400 52.8 51.7 89 49.1 0.00 71.3 0.1 S | 176 0.8 336 -27 0.0 - 3.8
4/7/26 - 0300 54.1 52.6 87 49.3 0.00 71.5 0.2 SSE | 157 1.4 312 -36 0.0 - 3.8
4/7/26 - 0200 56.2 54.1 84 50.1 0.00 72.0 0.1 SSW | 193 1.4 286 -50 0.0 - 3.8
4/7/26 - 0100 57.2 55.9 79 50.3 0.00 72.0 0.0 E | 94 1.3 276 -62 0.0 - 3.8
4/7/26 - 0000 59.4 56.9 70 48.4 0.00 72.3 0.0 SE | 142 1.3 271 -66 0.0 - 3.8
4/6/26 - 2300 59.3 57.4 61 44.9 0.00 72.3 0.4 S | 176 2.6 266 -67 0.0 - 3.8
4/6/26 - 2200 64.0 58.6 54 44.7 0.00 72.6 0.7 SSW | 205 3.9 266 -70 0.0 - 3.8
4/6/26 - 2100 65.4 63.5 50 45.3 0.00 72.7 0.9 SSW | 196 4.6 264 -75 0.9 - 3.8
4/6/26 - 2000 73.1 65.4 43 45.6 0.00 72.6 1.2 W | 275 4.0 263 -85 3.2 - 3.8
4/6/26 - 1900 79.5 73.1 33 44.9 0.00 72.2 1.4 WNW | 293 6.1 262 -13 3.0 - 3.8
4/6/26 - 1800 80.1 77.9 28 42.5 0.00 71.8 3.1 WSW | 250 9.4 260 138 4.1 - 3.8
4/6/26 - 1700 82.5 77.8 30 46.2 0.00 71.2 4.0 WSW | 252 10.8 261 280 6.5 - 3.8
4/6/26 - 1600 82.3 78.5 33 48.5 0.00 70.5 4.2 WSW | 249 12.0 260 400 5.4 - 3.8
4/6/26 - 1500 80.5 78.5 36 50.1 0.00 68.2 4.0 S | 186 11.0 261 490 5.1 - 3.8
4/6/26 - 1400 81.8 78.6 35 49.6 0.00 67.3 3.5 SSE | 155 11.0 260 533 5.8 - 3.8
4/6/26 - 1300 82.5 76.9 26 41.5 0.00 67.4 1.6 SSE | 161 7.6 260 534 3.6 - 3.8
4/6/26 - 1200 79.1 74.2 30 42.8 0.00 70.7 1.3 ENE | 78 4.3 259 523 2.2 - 3.8
4/6/26 - 1100 75.6 70.4 41 47.5 0.00 68.7 0.9 NE | 36 4.1 260 346 1.6 - 3.8
4/6/26 - 1000 72.2 66.8 46 46.9 0.00 69.0 0.7 ENE | 75 2.8 260 218 1.1 - 3.8
4/6/26 - 0900 68.5 60.2 50 44.6 0.00 69.0 0.2 ESE | 123 2.5 262 113 0.8 - 3.8
4/6/26 - 0800 60.4 57.8 55 42.6 0.00 69.3 0.0 SSE | 161 0.7 265 4 0.3 - 3.8
4/6/26 - 0700 58.7 57.5 52 40.3 0.00 69.6 0.1 SSW | 192 1.6 264 -24 0.0 - 3.8
4/6/26 - 0600 58.8 57.5 49 38.8 0.00 69.9 0.1 SSE | 150 1.6 264 -30 0.0 - 3.8
4/6/26 - 0500 59.0 58.3 48 39.1 0.00 70.0 0.0 N | 0 0.0 264 -31 0.0 - 3.8
4/6/26 - 0400 58.9 58.0 45 37.3 0.00 72.4 0.0 SSW | 194 1.2 263 -30 0.0 - 3.8
4/6/26 - 0300 60.0 58.6 38 33.9 0.00 68.4 0.1 S | 191 1.3 262 -34 0.0 - 3.8
4/6/26 - 0200 61.5 59.4 37 33.7 0.00 67.9 0.0 SSE | 154 1.5 262 -36 0.0 - 3.8
4/6/26 - 0100 62.1 60.6 31 30.4 0.00 71.0 0.0 SE | 143 0.4 262 -37 0.0 - 3.8
4/6/26 - 0000 63.7 61.4 27 28.1 0.00 71.1 0.0 E | 84 0.9 261 -43 0.2 - 3.8
4/5/26 - 2300 66.6 63.1 23 26.3 0.00 71.1 0.7 S | 187 5.0 261 -56 0.3 - 3.8
4/5/26 - 2200 69.0 64.5 21 26.4 0.00 71.4 1.2 SSW | 194 4.2 260 -65 0.0 - 3.8
4/5/26 - 2100 72.6 68.8 19 26.8 0.00 71.2 2.2 SSW | 211 4.7 260 -70 1.5 - 3.8
4/5/26 - 2000 76.9 72.5 17 26.7 0.00 71.0 1.8 SW | 231 4.7 260 -69 1.8 - 3.8
4/5/26 - 1900 81.6 76.8 18 32.0 0.00 70.8 0.5 WNW | 298 3.6 259 -25 2.2 - 3.8
4/5/26 - 1800 83.8 80.9 15 30.4 0.00 70.4 2.8 WSW | 249 8.3 258 131 3.7 - 3.8
4/5/26 - 1700 82.5 80.9 14 28.2 0.00 70.0 3.6 SW | 229 9.7 258 164 4.2 - 3.8
4/5/26 - 1600 84.0 81.2 13 25.6 0.00 69.1 4.8 S | 181 10.1 258 281 4.2 - 3.8
4/5/26 - 1500 87.7 83.7 10 23.7 0.00 68.5 4.7 S | 172 12.7 258 458 6.3 - 3.8
4/5/26 - 1400 87.7 85.1 11 25.0 0.00 67.7 3.6 S | 178 9.1 257 540 3.9 - 3.9
4/5/26 - 1300 87.7 84.5 12 26.9 0.00 67.6 2.4 WSW | 242 9.4 258 536 4.1 - 3.9
4/5/26 - 1200 85.7 81.1 12 26.2 0.00 67.5 1.2 ENE | 58 6.7 257 487 3.8 - 3.9
4/5/26 - 1100 81.2 74.5 21 34.1 0.00 67.3 0.4 NNE | 27 2.5 258 389 2.0 - 3.9
4/5/26 - 1000 74.4 66.1 28 35.7 0.00 67.7 0.3 NW | 311 3.1 259 257 1.4 - 3.9
4/5/26 - 0900 66.3 56.0 39 36.2 0.00 67.9 0.0 NNE | 31 1.1 260 127 0.0 - 3.9
4/5/26 - 0800 56.0 48.3 55 35.8 0.00 68.3 0.0 SSE | 147 1.1 264 4 0.0 - 3.9
4/5/26 - 0700 48.3 46.9 54 31.5 0.00 68.6 0.0 N | 0 0.0 265 -49 0.0 - 3.9
4/5/26 - 0600 49.4 47.1 53 31.6 0.00 68.8 0.0 N | 0 0.0 265 -61 0.0 - 3.9
4/5/26 - 0500 49.9 48.8 48 30.6 0.00 67.5 0.0 SSE | 147 1.1 264 -62 0.0 - 3.9
4/5/26 - 0400 51.8 49.7 48 31.8 0.00 72.2 0.1 SSE | 156 1.1 264 -63 0.0 - 3.9
4/5/26 - 0300 53.9 51.2 41 29.5 0.00 70.4 0.0 SSE | 163 0.4 263 -64 0.0 - 3.9
4/5/26 - 0200 54.9 53.5 38 29.0 0.00 70.3 0.0 SSE | 162 1.0 262 -66 0.0 - 3.9
4/5/26 - 0100 58.7 54.8 33 28.0 0.00 70.6 0.3 S | 169 1.9 262 -70 1.1 - 3.9
4/5/26 - 0000 66.0 58.4 25 25.6 0.00 70.8 0.1 S | 184 1.6 262 -74 0.1 - 3.9
4/4/26 - 2300 67.8 66.0 18 22.1 0.00 70.8 2.5 S | 191 5.2 260 -82 2.2 - 3.9
4/4/26 - 2200 69.1 67.6 17 21.2 0.00 70.8 3.2 SW | 219 6.9 259 -86 3.3 - 3.9
4/4/26 - 2100 71.6 68.6 18 24.0 0.00 70.9 3.5 SW | 226 7.1 259 -92 3.4 - 3.9
4/4/26 - 2000 78.0 71.6 15 23.9 0.00 70.8 4.3 WSW | 250 8.8 259 -97 4.4 - 4.0
4/4/26 - 1900 81.6 77.9 12 23.7 0.00 70.2 4.8 SW | 228 10.4 258 0 4.7 - 4.0
4/4/26 - 1800 84.4 81.2 11 22.6 0.00 69.6 4.1 SSW | 211 9.4 258 90 5.0 - 4.0
4/4/26 - 1700 88.0 83.1 10 22.9 0.00 69.0 2.9 SSW | 210 9.7 258 267 4.9 - 4.0
4/4/26 - 1600 89.4 86.4 9 22.4 0.00 68.2 0.9 NNW | 336 5.3 258 343 3.1 - 4.1
4/4/26 - 1500 89.7 87.8 9 21.3 0.00 67.5 1.3 N | 7 6.7 257 459 4.1 - 4.1
4/4/26 - 1400 89.3 84.1 9 20.5 0.00 67.0 1.8 NE | 53 7.6 257 536 2.9 - 4.1
4/4/26 - 1300 87.7 84.2 8 17.9 0.00 66.5 1.8 E | 83 6.5 257 544 2.9 - 4.1
4/4/26 - 1200 86.4 83.1 8 17.9 0.00 66.2 1.5 NE | 40 5.7 256 507 2.4 - 4.1
4/4/26 - 1100 84.3 79.2 10 18.7 0.00 65.2 1.4 NNE | 16 7.7 256 428 2.4 - 4.1
4/4/26 - 1000 79.4 74.1 12 20.6 0.00 64.8 1.1 N | 360 8.8 257 316 2.4 - 4.1
4/4/26 - 0900 74.1 64.8 20 26.1 0.00 65.0 0.5 N | 352 4.9 258 176 1.7 - 4.1
4/4/26 - 0800 64.9 53.2 37 31.4 0.00 68.9 0.7 SE | 143 3.2 263 5 1.3 - 4.1
4/4/26 - 0700 54.4 51.6 32 23.7 0.00 69.0 0.8 SSE | 154 2.9 263 -61 1.1 - 4.1
4/4/26 - 0600 53.3 51.8 32 23.8 0.00 67.6 0.8 SSE | 152 2.9 263 -66 0.9 - 4.1
4/4/26 - 0500 53.4 51.8 32 23.9 0.00 67.9 0.6 SSE | 148 2.6 263 -68 0.8 - 4.1
4/4/26 - 0400 53.9 51.9 32 23.7 0.00 68.2 0.4 SSE | 148 2.7 263 -68 0.7 - 4.1
4/4/26 - 0300 54.9 53.2 30 23.4 0.00 68.5 0.5 SSE | 153 2.3 262 -68 1.3 - 4.1
4/4/26 - 0200 56.4 54.3 28 23.1 0.00 68.8 0.1 SSE | 160 2.7 262 -68 0.5 - 4.1
4/4/26 - 0100 58.2 55.1 28 24.0 0.00 68.9 0.3 SSE | 152 3.0 262 -67 0.0 - 4.1
4/4/26 - 0000 66.9 58.0 19 18.5 0.00 69.1 0.3 SSE | 153 2.4 261 -67 0.5 - 4.1
4/3/26 - 2300 67.9 64.9 12 12.6 0.00 69.3 0.4 NNE | 21 4.5 260 -70 2.0 - 4.1
4/3/26 - 2200 69.6 66.3 12 12.3 0.00 69.6 0.4 ENE | 77 4.6 260 -74 2.1 - 4.1
4/3/26 - 2100 71.3 69.6 9 9.7 0.00 69.3 1.1 NNE | 14 10.1 259 -90 3.0 - 4.1
4/3/26 - 2000 74.5 70.8 9 9.6 0.00 69.5 1.1 N | 6 7.2 259 -96 2.1 - 4.2
4/3/26 - 1900 78.9 74.3 8 10.0 0.00 66.4 2.1 N | 8 10.3 258 -31 2.6 - 4.2
4/3/26 - 1800 80.0 78.2 8 12.5 0.00 67.0 2.3 N | 10 9.6 258 137 4.5 - 4.2
4/3/26 - 1700 80.6 79.5 10 17.4 0.00 71.0 2.1 N | 6 7.8 258 216 2.2 - 4.2
4/3/26 - 1600 80.8 79.0 11 20.8 0.00 70.6 2.1 N | 5 9.9 259 306 3.0 - 4.2
4/3/26 - 1500 80.7 77.4 12 21.6 0.00 67.3 2.0 N | 1 9.1 258 365 3.4 - 4.2
4/3/26 - 1400 79.0 75.3 12 21.2 0.00 67.0 2.6 N | 6 10.8 259 345 3.0 - 4.2
4/3/26 - 1300 77.0 74.2 13 21.5 0.00 66.8 2.9 N | 4 10.2 259 417 4.4 - 4.2
4/3/26 - 1200 74.4 72.5 15 22.5 0.00 66.5 3.2 N | 6 12.1 260 432 3.4 - 4.2
4/3/26 - 1100 73.4 69.5 25 33.1 0.00 66.7 2.0 NNE | 17 8.9 260 423 2.9 - 4.2
4/3/26 - 1000 69.8 65.7 41 43.3 0.00 66.9 0.9 E | 100 4.7 262 297 2.6 - 4.2
4/3/26 - 0900 66.5 57.0 58 46.8 0.00 67.0 0.7 S | 184 3.1 264 179 1.6 - 4.2
4/3/26 - 0800 57.0 46.6 85 46.3 0.00 67.6 0.6 SSW | 194 3.6 316 43 1.8 - 4.2
4/3/26 - 0700 48.2 46.5 88 43.9 0.00 67.7 0.2 SSE | 164 2.1 364 -16 0.0 - 4.2
4/3/26 - 0600 49.6 48.0 86 44.7 0.00 68.0 0.6 S | 172 2.9 364 -20 0.0 - 4.2
4/3/26 - 0500 49.9 48.1 89 46.0 0.00 68.2 0.2 SSE | 152 1.4 356 -21 0.0 - 4.2
4/3/26 - 0400 52.1 49.7 89 47.9 0.00 68.6 0.5 SSE | 152 1.9 366 -23 0.0 - 4.2
4/3/26 - 0300 51.9 49.7 89 47.8 0.00 68.8 0.9 SSE | 163 2.3 359 -27 0.6 - 4.2
4/3/26 - 0200 51.9 49.7 88 47.7 0.00 69.2 0.4 S | 175 2.1 348 -32 0.0 - 4.2
4/3/26 - 0100 54.4 51.6 86 48.8 0.00 69.5 0.4 SSE | 161 3.0 328 -44 0.7 - 4.2
4/3/26 - 0000 54.3 52.7 86 49.4 0.00 69.8 0.7 SSW | 194 3.3 303 -55 1.1 - 4.2
4/2/26 - 2300 56.3 53.7 82 49.7 0.00 69.8 0.2 S | 186 1.8 287 -64 0.0 - 4.2
4/2/26 - 2200 59.7 56.0 74 49.6 0.00 69.9 0.4 SSW | 202 2.2 273 -66 0.0 - 4.2
4/2/26 - 2100 61.7 59.4 65 48.8 0.00 69.7 1.2 SW | 215 3.0 268 -70 1.6 - 4.2
4/2/26 - 2000 65.5 61.6 58 48.2 0.00 70.0 2.3 WSW | 247 7.2 266 -75 3.9 - 4.2
4/2/26 - 1900 68.3 65.0 53 49.5 0.00 69.9 4.5 WSW | 240 9.2 266 41 5.2 - 4.2
4/2/26 - 1800 69.1 67.3 52 49.7 0.00 69.4 4.4 SSW | 199 9.2 265 195 4.5 - 4.2
4/2/26 - 1700 69.2 67.0 53 50.2 0.00 69.2 3.0 SSE | 163 9.0 264 169 4.1 - 4.3
4/2/26 - 1600 71.4 66.6 52 50.1 0.00 68.5 3.7 S | 174 9.4 264 193 5.0 - 4.3
4/2/26 - 1500 72.2 68.9 48 49.6 0.00 68.3 2.9 SSE | 158 8.9 264 437 4.1 - 4.3
4/2/26 - 1400 72.9 66.5 49 49.0 0.00 67.9 1.9 SSE | 161 6.2 264 359 3.8 - 4.3
4/2/26 - 1300 70.6 66.7 50 48.8 0.00 67.1 1.9 SE | 139 6.2 264 410 4.3 - 4.3
4/2/26 - 1200 69.1 64.6 53 49.2 0.00 65.2 1.7 ENE | 77 5.7 264 488 3.6 - 4.3
4/2/26 - 1100 66.3 61.4 58 48.7 0.00 68.0 1.7 E | 98 5.5 264 375 3.4 - 4.3
4/2/26 - 1000 62.0 58.2 66 48.6 0.00 67.7 1.2 SSE | 163 4.5 266 164 3.7 - 4.3
4/2/26 - 0900 58.6 55.7 78 50.8 0.00 67.4 0.6 SE | 137 3.2 269 64 1.2 - 4.3
4/2/26 - 0800 55.7 51.4 90 50.1 0.00 68.2 0.0 E | 98 1.0 274 26 0.0 - 4.3
4/2/26 - 0700 52.8 51.4 87 48.4 0.00 68.2 0.4 S | 180 1.7 304 -45 0.2 - 4.3
4/2/26 - 0600 55.4 52.6 82 48.7 0.00 68.4 0.9 SSW | 197 3.8 282 -60 1.4 - 4.3
4/2/26 - 0500 55.8 55.1 81 49.6 0.00 68.6 2.0 SW | 220 4.2 270 -29 2.6 - 4.3
4/2/26 - 0400 56.0 54.4 82 49.9 0.00 68.8 2.0 SW | 222 5.8 270 -22 2.9 - 4.3
4/2/26 - 0300 56.3 54.5 81 49.8 0.00 69.0 0.6 S | 185 2.8 274 -49 1.0 - 4.3
4/2/26 - 0200 56.2 55.3 81 49.8 0.00 69.2 1.1 S | 187 2.9 269 -33 1.4 - 4.3
4/2/26 - 0100 57.3 56.0 77 49.6 0.00 69.4 2.3 SW | 235 5.4 269 -41 2.6 - 4.3
4/2/26 - 0000 58.7 56.4 76 50.2 0.00 69.6 3.5 WSW | 242 6.6 269 -43 3.4 - 4.3
4/1/26 - 2300 59.7 58.5 74 50.8 0.00 69.7 3.2 WSW | 244 7.0 268 -33 3.4 - 4.3
4/1/26 - 2200 60.4 59.5 73 51.4 0.00 69.8 2.9 WSW | 245 7.0 268 -20 3.5 - 4.3
4/1/26 - 2100 60.7 59.9 74 51.9 0.00 68.9 2.5 WSW | 239 6.7 268 -19 4.1 - 4.3
4/1/26 - 2000 62.0 60.5 69 51.1 0.00 67.1 3.7 WSW | 242 7.8 267 -22 4.4 - 4.3
4/1/26 - 1900 65.1 62.0 63 50.3 0.00 70.3 3.6 W | 263 9.2 266 -32 4.6 - 4.3
4/1/26 - 1800 67.8 64.9 54 49.4 0.00 72.8 5.0 WSW | 250 11.6 266 162 5.9 - 4.3
4/1/26 - 1700 68.7 65.5 52 49.0 0.00 69.2 4.3 SW | 235 9.6 265 233 5.6 - 4.3
4/1/26 - 1600 67.8 65.7 57 51.3 0.00 69.0 4.5 SSW | 213 9.1 264 270 5.0 - 4.3
4/1/26 - 1500 68.6 65.9 58 51.8 0.00 68.6 2.8 SSE | 168 8.5 265 190 4.0 - 4.3
4/1/26 - 1400 72.4 67.0 48 48.8 0.00 68.0 1.7 SW | 216 7.5 264 406 3.0 - 4.3
4/1/26 - 1300 68.7 66.2 49 47.5 0.01 67.8 1.7 WSW | 247 6.2 264 378 3.6 - 4.3
4/1/26 - 1200 68.7 65.0 48 46.4 0.00 67.5 2.3 SW | 235 8.2 264 539 3.3 - 4.3
4/1/26 - 1100 66.6 61.8 57 48.3 0.00 67.8 2.0 SW | 231 7.7 263 369 5.0 - 4.3
4/1/26 - 1000 63.1 59.9 68 50.3 0.00 67.8 2.5 WSW | 237 6.0 266 246 3.9 10.9 4.3
4/1/26 - 0900 60.1 56.5 86 54.0 0.00 67.9 2.2 SW | 230 5.2 267 204 3.3 31.6 4.3
4/1/26 - 0800 56.6 54.5 96 54.4 0.00 68.3 0.8 S | 176 2.5 327 42 1.1 27.7 4.3
4/1/26 - 0700 54.8 52.6 96 52.6 0.00 68.4 0.5 S | 172 1.7 355 -1 0.0 21.0 4.3
4/1/26 - 0600 54.4 52.8 95 52.4 0.00 68.9 0.2 SSE | 163 2.4 377 -5 0.0 18.2 4.3
4/1/26 - 0500 56.4 54.3 94 53.6 0.00 69.0 0.3 S | 187 1.4 377 -6 0.0 19.0 4.3
4/1/26 - 0400 56.9 55.4 94 54.5 0.00 68.9 0.3 S | 174 2.0 357 -4 0.0 20.1 4.3
4/1/26 - 0300 56.6 55.4 92 53.8 0.00 69.2 0.4 SSW | 203 1.4 367 -5 0.0 15.1 4.3
4/1/26 - 0200 57.3 56.1 90 54.2 0.01 69.4 0.6 S | 185 3.7 386 -7 0.3 - 4.3
4/1/26 - 0100 59.3 57.0 90 55.0 0.15 69.6 2.1 SW | 231 7.5 463 -7 4.0 - 4.3
4/1/26 - 0000 59.9 58.9 90 56.4 0.14 69.8 2.4 SW | 232 5.3 464 -6 3.1 17.8 4.2
Max 89.7 87.8 96 57.7 0.15 75.6 7.1 - 14.0 522 589 9.7 51.6 4.3
Avg 63.7 60.6 56 43.1 0.00 70.2 1.6 - 5.2 277 123 2.4 23.3 3.8
Min 44.4 42.8 8 9.6 0.00 64.5 0.0 - 0.0 256 -97 0.0 10.9 3.8
Total - - - - 0.57 - - - - - - - - -